Observation data for Levelland on 03/01/2021      Previous  Date  Next       Current Mesonet Observations  Soil Data  Daily Summary Page  Observations in Plain Language
KLD1 010600Z 04022G28KT 05/M11 A301 RMK A01 T00541111  RH  029%=      5-min Rain = 0
KLD1 010601Z 05022KT 05/M11 A301 RMK A01 T00541111  RH  029%=      5-min Rain = 0
KLD1 010602Z 04022G28KT 05/M11 A301 RMK A01 T00541111  RH  029%=      5-min Rain = 0
KLD1 010603Z 04022G28KT 05/M11 A301 RMK A01 T00541111  RH  029%=      5-min Rain = 0
KLD1 010604Z 05021G28KT 05/M11 A301 RMK A01 T00541111  RH  029%=      5-min Rain = 0
KLD1 010605Z 04021G26KT 05/M11 A301 RMK A01 T00541110  RH  029%=      5-min Rain = 0
KLD1 010606Z 04024KT 05/M11 A301 RMK A01 T00541110  RH  030%=      5-min Rain = 0
KLD1 010607Z 04023KT 05/M11 A301 RMK A01 T00541110  RH  030%=      5-min Rain = 0
KLD1 010608Z 04021KT 05/M11 A3011 RMK A01 T00541110  RH  030%=      5-min Rain = 0
KLD1 010609Z 04021KT 05/M11 A3011 RMK A01 T00541110  RH  030%=      5-min Rain = 0
KLD1 010610Z 04020G26KT 05/M11 A3011 RMK A01 T00531110  RH  030%=      5-min Rain = 0
KLD1 010611Z 05021G27KT 05/M11 A3011 RMK A01 T00531110  RH  030%=      5-min Rain = 0
KLD1 010612Z 04021KT 05/M11 A3011 RMK A01 T00531110  RH  030%=      5-min Rain = 0
KLD1 010613Z 04021KT 05/M11 A3011 RMK A01 T00531109  RH  030%=      5-min Rain = 0
KLD1 010614Z 05019KT 05/M11 A3011 RMK A01 T00531109  RH  030%=      5-min Rain = 0
KLD1 010615Z 04020G26KT 05/M11 A3011 RMK A01 T00531109  RH  030%=      5-min Rain = 0
KLD1 010616Z 04020G26KT 05/M11 A3011 RMK A01 T00531109  RH  030%=      5-min Rain = 0
KLD1 010617Z 04020G25KT 05/M11 A3011 RMK A01 T00531109  RH  030%=      5-min Rain = 0
KLD1 010618Z 04020KT 05/M11 A3011 RMK A01 T00531109  RH  030%=      5-min Rain = 0
KLD1 010619Z 04019KT 05/M11 A3011 RMK A01 T00531109  RH  030%=      5-min Rain = 0
KLD1 010620Z 04019KT 05/M11 A3011 RMK A01 T00521109  RH  030%=      5-min Rain = 0
KLD1 010621Z 04020KT 05/M11 A3011 RMK A01 T00521109  RH  030%=      5-min Rain = 0
KLD1 010622Z 04021G26KT 05/M11 A3012 RMK A01 T00521109  RH  030%=      5-min Rain = 0
KLD1 010623Z 04019G24KT 05/M11 A3012 RMK A01 T00521108  RH  030%=      5-min Rain = 0
KLD1 010624Z 05021KT 05/M11 A3011 RMK A01 T00511108  RH  031%=      5-min Rain = 0
KLD1 010625Z 04021G26KT 05/M11 A3012 RMK A01 T00511108  RH  031%=      5-min Rain = 0
KLD1 010626Z 05020KT 05/M11 A3012 RMK A01 T00511107  RH  031%=      5-min Rain = 0
KLD1 010627Z 04021G29KT 05/M11 A3012 RMK A01 T00501106  RH  031%=      5-min Rain = 0
KLD1 010628Z 05021G27KT 05/M11 A3012 RMK A01 T00501107  RH  031%=      5-min Rain = 0
KLD1 010629Z 05022G27KT 05/M11 A3012 RMK A01 T00501106  RH  031%=      5-min Rain = 0
KLD1 010630Z 04021G27KT 05/M11 A3012 RMK A01 T00501106  RH  031%=      5-min Rain = 0
KLD1 010631Z 04020KT 05/M11 A3012 RMK A01 T00501106  RH  031%=      5-min Rain = 0
KLD1 010632Z 04019KT 05/M11 A3012 RMK A01 T00501106  RH  031%=      5-min Rain = 0
KLD1 010633Z 04019G25KT 05/M11 A3012 RMK A01 T00491106  RH  032%=      5-min Rain = 0
KLD1 010634Z 04021KT 05/M11 A3012 RMK A01 T00491106  RH  032%=      5-min Rain = 0
KLD1 010635Z 04021G26KT 05/M11 A3012 RMK A01 T00491106  RH  031%=      5-min Rain = 0
KLD1 010636Z 04020KT 05/M11 A3012 RMK A01 T00491106  RH  031%=      5-min Rain = 0
KLD1 010637Z 04020KT 05/M11 A3012 RMK A01 T00491107  RH  031%=      5-min Rain = 0
KLD1 010638Z 04019KT 05/M11 A3013 RMK A01 T00491107  RH  031%=      5-min Rain = 0
KLD1 010639Z 04019KT 05/M11 A3013 RMK A01 T00491107  RH  032%=      5-min Rain = 0
KLD1 010640Z 05018G26KT 05/M11 A3013 RMK A01 T00481107  RH  032%=      5-min Rain = 0
KLD1 010641Z 04020G25KT 05/M11 A3013 RMK A01 T00481106  RH  032%=      5-min Rain = 0
KLD1 010642Z 04017G22KT 05/M11 A3013 RMK A01 T00481106  RH  032%=      5-min Rain = 0
KLD1 010643Z 04017G22KT 05/M11 A3013 RMK A01 T00481106  RH  032%=      5-min Rain = 0
KLD1 010644Z 04021G26KT 05/M11 A3013 RMK A01 T00481106  RH  032%=      5-min Rain = 0
KLD1 010645Z 04020KT 05/M11 A3013 RMK A01 T00481107  RH  032%=      5-min Rain = 0
KLD1 010646Z 04020KT 05/M11 A3013 RMK A01 T00481107  RH  032%=      5-min Rain = 0
KLD1 010647Z 04019KT 05/M11 A3013 RMK A01 T00481107  RH  032%=      5-min Rain = 0
KLD1 010648Z 04018KT 05/M11 A3013 RMK A01 T00481107  RH  032%=      5-min Rain = 0
KLD1 010649Z 04017KT 05/M11 A3014 RMK A01 T00471106  RH  032%=      5-min Rain = 0
KLD1 010650Z 04019G24KT 05/M11 A3013 RMK A01 T00471106  RH  032%=      5-min Rain = 0
KLD1 010651Z 04020KT 05/M11 A3013 RMK A01 T00471107  RH  032%=      5-min Rain = 0
KLD1 010652Z 04018KT 05/M11 A3013 RMK A01 T00471107  RH  032%=      5-min Rain = 0
KLD1 010653Z 04017G23KT 05/M11 A3013 RMK A01 T00471107  RH  032%=      5-min Rain = 0
KLD1 010654Z 04019KT 05/M11 A3013 RMK A01 T00471107  RH  032%=      5-min Rain = 0
KLD1 010655Z 04021G26KT 05/M11 A3013 RMK A01 T00461106  RH  032%=      5-min Rain = 0
KLD1 010656Z 04020G25KT 05/M11 A3013 RMK A01 T00461106  RH  032%=      5-min Rain = 0
KLD1 010657Z 04021KT 05/M11 A3013 RMK A01 T00461107  RH  032%=      5-min Rain = 0
KLD1 010658Z 04019KT 05/M11 A3013 RMK A01 T00461107  RH  032%=      5-min Rain = 0
KLD1 010659Z 04016KT 05/M11 A3013 RMK A01 T00461107  RH  032%=      5-min Rain = 0
KLD1 010700Z 04018KT 05/M11 A3013 RMK A01 T00451107  RH  032%=      5-min Rain = 0
KLD1 010701Z 04019KT 05/M11 A3013 RMK A01 T00451107  RH  032%=      5-min Rain = 0
KLD1 010702Z 04019KT 05/M11 A3013 RMK A01 T00451107  RH  032%=      5-min Rain = 0
KLD1 010703Z 04017G22KT 05/M11 A3014 RMK A01 T00451107  RH  032%=      5-min Rain = 0
KLD1 010704Z 04017KT 05/M11 A3014 RMK A01 T00451106  RH  032%=      5-min Rain = 0
KLD1 010705Z 04019KT 05/M11 A3013 RMK A01 T00451106  RH  032%=      5-min Rain = 0
KLD1 010706Z 04018KT 05/M11 A3014 RMK A01 T00451106  RH  033%=      5-min Rain = 0
KLD1 010707Z 04017KT 04/M11 A3014 RMK A01 T00441106  RH  033%=      5-min Rain = 0
KLD1 010708Z 04017G22KT 04/M11 A3014 RMK A01 T00441106  RH  033%=      5-min Rain = 0
KLD1 010709Z 05018G23KT 04/M11 A3013 RMK A01 T00441106  RH  033%=      5-min Rain = 0
KLD1 010710Z 04020G25KT 04/M11 A3013 RMK A01 T00441106  RH  033%=      5-min Rain = 0
KLD1 010711Z 04019G24KT 04/M11 A3013 RMK A01 T00441106  RH  033%=      5-min Rain = 0
KLD1 010712Z 04020KT 04/M11 A3013 RMK A01 T00441106  RH  033%=      5-min Rain = 0
KLD1 010713Z 04021KT 04/M11 A3013 RMK A01 T00441106  RH  033%=      5-min Rain = 0
KLD1 010714Z 04018KT 04/M11 A3013 RMK A01 T00441106  RH  033%=      5-min Rain = 0
KLD1 010715Z 04019G25KT 04/M11 A3013 RMK A01 T00441106  RH  033%=      5-min Rain = 0
KLD1 010716Z 04021KT 04/M11 A3013 RMK A01 T00441105  RH  033%=      5-min Rain = 0
KLD1 010717Z 04018G24KT 04/M11 A3013 RMK A01 T00441105  RH  033%=      5-min Rain = 0
KLD1 010718Z 05018G23KT 04/M11 A3013 RMK A01 T00441105  RH  033%=      5-min Rain = 0
KLD1 010719Z 05020G26KT 04/M11 A3013 RMK A01 T00431105  RH  033%=      5-min Rain = 0
KLD1 010720Z 04022G27KT 04/M11 A3013 RMK A01 T00431105  RH  033%=      5-min Rain = 0
KLD1 010721Z 04019G24KT 04/M11 A3013 RMK A01 T00431105  RH  033%=      5-min Rain = 0
KLD1 010722Z 04016G22KT 04/M11 A3014 RMK A01 T00441105  RH  033%=      5-min Rain = 0
KLD1 010723Z 04017KT 04/M11 A3014 RMK A01 T00431105  RH  033%=      5-min Rain = 0
KLD1 010724Z 04019KT 04/M10 A3014 RMK A01 T00431104  RH  033%=      5-min Rain = 0
KLD1 010725Z 04018KT 04/M11 A3014 RMK A01 T00431105  RH  033%=      5-min Rain = 0
KLD1 010726Z 04016KT 04/M10 A3014 RMK A01 T00431104  RH  033%=      5-min Rain = 0
KLD1 010727Z 04016KT 04/M11 A3015 RMK A01 T00431105  RH  033%=      5-min Rain = 0
KLD1 010728Z 04017KT 04/M11 A3015 RMK A01 T00421105  RH  033%=      5-min Rain = 0
KLD1 010729Z 04017KT 04/M10 A3015 RMK A01 T00421104  RH  034%=      5-min Rain = 0
KLD1 010730Z 03015KT 04/M11 A3015 RMK A01 T00421105  RH  033%=      5-min Rain = 0
KLD1 010731Z 03017KT 04/M11 A3015 RMK A01 T00421105  RH  033%=      5-min Rain = 0
KLD1 010732Z 03017KT 04/M10 A3015 RMK A01 T00421104  RH  034%=      5-min Rain = 0
KLD1 010733Z 03016KT 04/M10 A3015 RMK A01 T00421104  RH  034%=      5-min Rain = 0
KLD1 010734Z 03016KT 04/M10 A3015 RMK A01 T00421104  RH  034%=      5-min Rain = 0
KLD1 010735Z 03017G22KT 04/M10 A3015 RMK A01 T00421104  RH  034%=      5-min Rain = 0
KLD1 010736Z 03018G23KT 04/M11 A3015 RMK A01 T00421105  RH  034%=      5-min Rain = 0
KLD1 010737Z 03017KT 04/M11 A3015 RMK A01 T00421105  RH  034%=      5-min Rain = 0
KLD1 010738Z 03016KT 04/M11 A3015 RMK A01 T00421105  RH  034%=      5-min Rain = 0
KLD1 010739Z 03018KT 04/M11 A3015 RMK A01 T00421105  RH  034%=      5-min Rain = 0
KLD1 010740Z 03017KT 04/M11 A3015 RMK A01 T00411105  RH  034%=      5-min Rain = 0
KLD1 010741Z 03018G23KT 04/M11 A3015 RMK A01 T00411105  RH  034%=      5-min Rain = 0
KLD1 010742Z 03017KT 04/M11 A3015 RMK A01 T00411105  RH  034%=      5-min Rain = 0
KLD1 010743Z 03017KT 04/M11 A3015 RMK A01 T00411105  RH  034%=      5-min Rain = 0
KLD1 010744Z 03018KT 04/M10 A3015 RMK A01 T00411104  RH  034%=      5-min Rain = 0
KLD1 010745Z 03017KT 04/M11 A3015 RMK A01 T00411105  RH  034%=      5-min Rain = 0
KLD1 010746Z 03017KT 04/M10 A3015 RMK A01 T00411104  RH  034%=      5-min Rain = 0
KLD1 010747Z 03017G22KT 04/M10 A3015 RMK A01 T00411104  RH  034%=      5-min Rain = 0
KLD1 010748Z 03018KT 04/M10 A3015 RMK A01 T00411104  RH  034%=      5-min Rain = 0
KLD1 010749Z 03018KT 04/M10 A3015 RMK A01 T00411104  RH  034%=      5-min Rain = 0
KLD1 010750Z 03017KT 04/M10 A3015 RMK A01 T00421104  RH  034%=      5-min Rain = 0
KLD1 010751Z 03017G22KT 04/M10 A3015 RMK A01 T00421104  RH  034%=      5-min Rain = 0
KLD1 010752Z 03016G21KT 04/M10 A3016 RMK A01 T00421104  RH  034%=      5-min Rain = 0
KLD1 010753Z 03015KT 04/M10 A3016 RMK A01 T00421104  RH  034%=      5-min Rain = 0
KLD1 010754Z 03016G21KT 04/M10 A3016 RMK A01 T00421104  RH  034%=      5-min Rain = 0
KLD1 010755Z 03017KT 04/M10 A3016 RMK A01 T00421104  RH  034%=      5-min Rain = 0
KLD1 010756Z 03018KT 04/M10 A3015 RMK A01 T00421104  RH  034%=      5-min Rain = 0
KLD1 010757Z 03020G25KT 04/M10 A3015 RMK A01 T00421104  RH  034%=      5-min Rain = 0
KLD1 010758Z 03020KT 04/M10 A3015 RMK A01 T00421104  RH  034%=      5-min Rain = 0
KLD1 010759Z 03020G25KT 04/M10 A3015 RMK A01 T00421104  RH  034%=      5-min Rain = 0
KLD1 010800Z 03020KT 04/M10 A3014 RMK A01 T00421104  RH  034%=      5-min Rain = 0
KLD1 010801Z 03019G25KT 04/M10 A3014 RMK A01 T00421104  RH  034%=      5-min Rain = 0
KLD1 010802Z 02017G23KT 04/M10 A3014 RMK A01 T00411104  RH  034%=      5-min Rain = 0
KLD1 010803Z 02018G23KT 04/M10 A3014 RMK A01 T00411104  RH  034%=      5-min Rain = 0
KLD1 010804Z 02018KT 04/M10 A3014 RMK A01 T00401103  RH  034%=      5-min Rain = 0
KLD1 010805Z 02017KT 04/M10 A3014 RMK A01 T00401102  RH  035%=      5-min Rain = 0
KLD1 010806Z 02019G24KT 04/M10 A3014 RMK A01 T00401102  RH  035%=      5-min Rain = 0
KLD1 010807Z 02020KT 04/M10 A3014 RMK A01 T00401101  RH  035%=      5-min Rain = 0
KLD1 010808Z 02019KT 04/M10 A3014 RMK A01 T00401102  RH  035%=      5-min Rain = 0
KLD1 010809Z 02020G25KT 04/M10 A3014 RMK A01 T00401102  RH  035%=      5-min Rain = 0
KLD1 010810Z 03022KT 04/M10 A3013 RMK A01 T00401102  RH  035%=      5-min Rain = 0
KLD1 010811Z 03018KT 04/M10 A3014 RMK A01 T00401102  RH  035%=      5-min Rain = 0
KLD1 010812Z 03016KT 04/M10 A3014 RMK A01 T00401101  RH  035%=      5-min Rain = 0
KLD1 010813Z 02017G22KT 04/M10 A3014 RMK A01 T00401101  RH  035%=      5-min Rain = 0
KLD1 010814Z 03019KT 04/M10 A3014 RMK A01 T00401101  RH  035%=      5-min Rain = 0
KLD1 010815Z 03019G25KT 04/M10 A3014 RMK A01 T00401101  RH  035%=      5-min Rain = 0
KLD1 010816Z 03019KT 04/M10 A3014 RMK A01 T00401102  RH  035%=      5-min Rain = 0
KLD1 010817Z 03018KT 04/M10 A3014 RMK A01 T00401102  RH  035%=      5-min Rain = 0
KLD1 010818Z 03016KT 04/M10 A3014 RMK A01 T00401102  RH  035%=      5-min Rain = 0
KLD1 010819Z 04015KT 04/M10 A3015 RMK A01 T00401102  RH  035%=      5-min Rain = 0
KLD1 010820Z 04016KT 04/M10 A3015 RMK A01 T00401101  RH  035%=      5-min Rain = 0
KLD1 010821Z 04016KT 04/M10 A3015 RMK A01 T00401102  RH  035%=      5-min Rain = 0
KLD1 010822Z 04016KT 04/M10 A3016 RMK A01 T00401102  RH  035%=      5-min Rain = 0
KLD1 010823Z 04016KT 04/M10 A3016 RMK A01 T00401102  RH  035%=      5-min Rain = 0
KLD1 010824Z 04015KT 04/M10 A3016 RMK A01 T00401102  RH  034%=      5-min Rain = 0
KLD1 010825Z 04015KT 04/M10 A3016 RMK A01 T00401102  RH  034%=      5-min Rain = 0
KLD1 010826Z 03015G21KT 04/M10 A3016 RMK A01 T00401102  RH  035%=      5-min Rain = 0
KLD1 010827Z 03017G22KT 04/M10 A3016 RMK A01 T00401102  RH  035%=      5-min Rain = 0
KLD1 010828Z 03019G24KT 04/M10 A3016 RMK A01 T00411102  RH  034%=      5-min Rain = 0
KLD1 010829Z 03019KT 04/M10 A3016 RMK A01 T00411103  RH  034%=      5-min Rain = 0
KLD1 010830Z 03017G22KT 04/M10 A3016 RMK A01 T00411103  RH  034%=      5-min Rain = 0
KLD1 010831Z 03016KT 04/M10 A3017 RMK A01 T00411102  RH  034%=      5-min Rain = 0
KLD1 010832Z 03014G19KT 04/M10 A3017 RMK A01 T00411102  RH  034%=      5-min Rain = 0
KLD1 010833Z 03016KT 04/M10 A3017 RMK A01 T00411102  RH  034%=      5-min Rain = 0
KLD1 010834Z 02016KT 04/M10 A3017 RMK A01 T00411102  RH  034%=      5-min Rain = 0
KLD1 010835Z 02017KT 04/M10 A3017 RMK A01 T00411101  RH  035%=      5-min Rain = 0
KLD1 010836Z 02016KT 04/M10 A3016 RMK A01 T00411101  RH  035%=      5-min Rain = 0
KLD1 010837Z 01016KT 04/M10 A3016 RMK A01 T00411100  RH  035%=      5-min Rain = 0
KLD1 010838Z 02015KT 04/M10 A3016 RMK A01 T00411100  RH  035%=      5-min Rain = 0
KLD1 010839Z 02018G23KT 04/M10 A3016 RMK A01 T00411100  RH  035%=      5-min Rain = 0
KLD1 010840Z 01018G23KT 04/M10 A3016 RMK A01 T00411100  RH  035%=      5-min Rain = 0
KLD1 010841Z 02018KT 04/M10 A3016 RMK A01 T00411101  RH  035%=      5-min Rain = 0
KLD1 010842Z 02017G22KT 04/M10 A3016 RMK A01 T00411101  RH  035%=      5-min Rain = 0
KLD1 010843Z 02018KT 04/M10 A3016 RMK A01 T00421100  RH  035%=      5-min Rain = 0
KLD1 010844Z 02016G21KT 04/M10 A3017 RMK A01 T00421100  RH  035%=      5-min Rain = 0
KLD1 010845Z 02017KT 04/M10 A3017 RMK A01 T00421100  RH  035%=      5-min Rain = 0
KLD1 010846Z 03016KT 04/M10 A3017 RMK A01 T00421101  RH  035%=      5-min Rain = 0
KLD1 010847Z 03014KT 04/M10 A3018 RMK A01 T00421100  RH  035%=      5-min Rain = 0
KLD1 010848Z 03013KT 04/M10 A3018 RMK A01 T00421100  RH  035%=      5-min Rain = 0
KLD1 010849Z 03013KT 04/M10 A3018 RMK A01 T00421099  RH  035%=      5-min Rain = 0
KLD1 010850Z 03014KT 04/M10 A3018 RMK A01 T00421099  RH  035%=      5-min Rain = 0
KLD1 010851Z 03017KT 04/M10 A3018 RMK A01 T00421100  RH  035%=      5-min Rain = 0
KLD1 010852Z 04015KT 04/M10 A3018 RMK A01 T00421100  RH  035%=      5-min Rain = 0
KLD1 010853Z 04015KT 04/M10 A3018 RMK A01 T00421099  RH  035%=      5-min Rain = 0
KLD1 010854Z 04016KT 04/M10 A3017 RMK A01 T00421099  RH  035%=      5-min Rain = 0
KLD1 010855Z 04017KT 04/M10 A3017 RMK A01 T00421100  RH  035%=      5-min Rain = 0
KLD1 010856Z 04018KT 04/M10 A3017 RMK A01 T00421100  RH  035%=      5-min Rain = 0
KLD1 010857Z 04019KT 04/M10 A3017 RMK A01 T00421100  RH  035%=      5-min Rain = 0
KLD1 010858Z 04019G24KT 04/M10 A3016 RMK A01 T00421101  RH  035%=      5-min Rain = 0
KLD1 010859Z 04017KT 04/M10 A3016 RMK A01 T00421101  RH  035%=      5-min Rain = 0
KLD1 010900Z 04018G23KT 04/M10 A3016 RMK A01 T00421101  RH  035%=      5-min Rain = 0
KLD1 010901Z 04017KT 04/M10 A3016 RMK A01 T00421100  RH  035%=      5-min Rain = 0
KLD1 010902Z 04017KT 04/M10 A3015 RMK A01 T00411101  RH  035%=      5-min Rain = 0
KLD1 010903Z 04020KT 04/M10 A3015 RMK A01 T00411100  RH  035%=      5-min Rain = 0
KLD1 010904Z 04020KT 04/M10 A3015 RMK A01 T00411101  RH  035%=      5-min Rain = 0
KLD1 010905Z 04017KT 04/M10 A3015 RMK A01 T00411101  RH  035%=      5-min Rain = 0
KLD1 010906Z 04017KT 04/M10 A3016 RMK A01 T00411101  RH  035%=      5-min Rain = 0
KLD1 010907Z 04017G22KT 04/M10 A3016 RMK A01 T00411101  RH  035%=      5-min Rain = 0
KLD1 010908Z 04018KT 04/M10 A3016 RMK A01 T00411101  RH  035%=      5-min Rain = 0
KLD1 010909Z 04017KT 04/M10 A3017 RMK A01 T00411101  RH  035%=      5-min Rain = 0
KLD1 010910Z 04017KT 04/M10 A3017 RMK A01 T00411101  RH  035%=      5-min Rain = 0
KLD1 010911Z 04017KT 04/M10 A3017 RMK A01 T00411101  RH  035%=      5-min Rain = 0
KLD1 010912Z 04017KT 04/M10 A3017 RMK A01 T00411101  RH  035%=      5-min Rain = 0
KLD1 010913Z 04018G23KT 04/M10 A3017 RMK A01 T00421101  RH  035%=      5-min Rain = 0
KLD1 010914Z 04018KT 04/M10 A3016 RMK A01 T00421101  RH  035%=      5-min Rain = 0
KLD1 010915Z 04019G24KT 04/M10 A3016 RMK A01 T00421101  RH  035%=      5-min Rain = 0
KLD1 010916Z 04018KT 04/M10 A3016 RMK A01 T00421101  RH  034%=      5-min Rain = 0
KLD1 010917Z 04021KT 04/M10 A3016 RMK A01 T00421101  RH  035%=      5-min Rain = 0
KLD1 010918Z 04020G25KT 04/M10 A3016 RMK A01 T00421102  RH  034%=      5-min Rain = 0
KLD1 010919Z 04019G25KT 04/M10 A3016 RMK A01 T00421101  RH  034%=      5-min Rain = 0
KLD1 010920Z 04019G24KT 04/M10 A3016 RMK A01 T00421101  RH  035%=      5-min Rain = 0
KLD1 010921Z 03019KT 04/M10 A3017 RMK A01 T00421101  RH  035%=      5-min Rain = 0
KLD1 010922Z 04018G24KT 04/M10 A3017 RMK A01 T00421101  RH  035%=      5-min Rain = 0
KLD1 010923Z 04021KT 04/M10 A3017 RMK A01 T00421101  RH  035%=      5-min Rain = 0
KLD1 010924Z 04019KT 04/M10 A3017 RMK A01 T00421101  RH  035%=      5-min Rain = 0
KLD1 010925Z 04018G24KT 04/M10 A3018 RMK A01 T00421101  RH  035%=      5-min Rain = 0
KLD1 010926Z 04019KT 04/M10 A3018 RMK A01 T00421101  RH  035%=      5-min Rain = 0
KLD1 010927Z 04019KT 04/M10 A3018 RMK A01 T00421101  RH  035%=      5-min Rain = 0
KLD1 010928Z 04020KT 04/M10 A3017 RMK A01 T00421101  RH  035%=      5-min Rain = 0
KLD1 010929Z 04022KT 04/M10 A3017 RMK A01 T00421101  RH  035%=      5-min Rain = 0
KLD1 010930Z 04019KT 04/M10 A3017 RMK A01 T00421101  RH  035%=      5-min Rain = 0
KLD1 010931Z 04019KT 04/M10 A3017 RMK A01 T00411101  RH  035%=      5-min Rain = 0
KLD1 010932Z 04020KT 04/M10 A3017 RMK A01 T00411100  RH  035%=      5-min Rain = 0
KLD1 010933Z 04019KT 04/M10 A3017 RMK A01 T00411100  RH  035%=      5-min Rain = 0
KLD1 010934Z 04018KT 04/M10 A3017 RMK A01 T00411100  RH  035%=      5-min Rain = 0
KLD1 010935Z 04021KT 04/M10 A3017 RMK A01 T00411100  RH  035%=      5-min Rain = 0
KLD1 010936Z 03018G23KT 04/M10 A3018 RMK A01 T00411101  RH  035%=      5-min Rain = 0
KLD1 010937Z 04016KT 04/M10 A3018 RMK A01 T00411100  RH  035%=      5-min Rain = 0
KLD1 010938Z 04018KT 04/M10 A3018 RMK A01 T00411100  RH  035%=      5-min Rain = 0
KLD1 010939Z 04017KT 04/M10 A3018 RMK A01 T00411100  RH  035%=      5-min Rain = 0
KLD1 010940Z 04019KT 04/M10 A3018 RMK A01 T00411100  RH  035%=      5-min Rain = 0
KLD1 010941Z 04021G27KT 04/M10 A3018 RMK A01 T00411100  RH  035%=      5-min Rain = 0
KLD1 010942Z 04023KT 04/M10 A3017 RMK A01 T00411100  RH  035%=      5-min Rain = 0
KLD1 010943Z 04021G26KT 04/M10 A3017 RMK A01 T00411101  RH  035%=      5-min Rain = 0
KLD1 010944Z 03022G28KT 04/M10 A3017 RMK A01 T00401101  RH  035%=      5-min Rain = 0
KLD1 010945Z 03023G28KT 04/M10 A3017 RMK A01 T00401101  RH  035%=      5-min Rain = 0
KLD1 010946Z 03022G27KT 04/M10 A3017 RMK A01 T00401101  RH  035%=      5-min Rain = 0
KLD1 010947Z 03022KT 04/M10 A3017 RMK A01 T00401100  RH  035%=      5-min Rain = 0
KLD1 010948Z 03022KT 04/M10 A3017 RMK A01 T00401100  RH  035%=      5-min Rain = 0
KLD1 010949Z 03022KT 04/M10 A3017 RMK A01 T00401100  RH  035%=      5-min Rain = 0
KLD1 010950Z 03020KT 04/M10 A3018 RMK A01 T00401100  RH  035%=      5-min Rain = 0
KLD1 010951Z 04019G25KT 04/M10 A3018 RMK A01 T00401100  RH  035%=      5-min Rain = 0
KLD1 010952Z 04017KT 04/M10 A3018 RMK A01 T00401100  RH  035%=      5-min Rain = 0
KLD1 010953Z 03017G23KT 04/M10 A3019 RMK A01 T00401099  RH  036%=      5-min Rain = 0
KLD1 010954Z 04017KT 04/M10 A3019 RMK A01 T00401098  RH  036%=      5-min Rain = 0
KLD1 010955Z 04020KT 04/M10 A3019 RMK A01 T00401097  RH  036%=      5-min Rain = 0
KLD1 010956Z 04019KT 04/M10 A3019 RMK A01 T00401097  RH  036%=      5-min Rain = 0
KLD1 010957Z 04019KT 04/M10 A3019 RMK A01 T00401097  RH  036%=      5-min Rain = 0
KLD1 010958Z 03018G23KT 04/M10 A3019 RMK A01 T00401097  RH  036%=      5-min Rain = 0
KLD1 010959Z 03016G21KT 04/M10 A3019 RMK A01 T00391095  RH  037%=      5-min Rain = 0
KLD1 011000Z 03018G25KT 04/M09 A3019 RMK A01 T00381090  RH  039%=      5-min Rain = 0
KLD1 011001Z 03016KT 04/M09 A3019 RMK A01 T00371088  RH  039%=      5-min Rain = 0
KLD1 011002Z 03018KT 04/M09 A3019 RMK A01 T00371090  RH  039%=      5-min Rain = 0
KLD1 011003Z 03018G23KT 04/M09 A3019 RMK A01 T00371090  RH  039%=      5-min Rain = 0
KLD1 011004Z 03019KT 04/M09 A3019 RMK A01 T00371090  RH  039%=      5-min Rain = 0
KLD1 011005Z 03017KT 04/M09 A3019 RMK A01 T00371087  RH  040%=      5-min Rain = 0
KLD1 011006Z 03021KT 04/M08 A3019 RMK A01 T00361084  RH  041%=      5-min Rain = 0
KLD1 011007Z 04017KT 04/M08 A3019 RMK A01 T00351080  RH  043%=      5-min Rain = 0
KLD1 011008Z 04018G23KT 03/M08 A3019 RMK A01 T00341079  RH  043%=      5-min Rain = 0
KLD1 011009Z 04020G27KT 03/M07 A3019 RMK A01 T00341072  RH  046%=      5-min Rain = 0
KLD1 011010Z 05020KT 03/M06 A3019 RMK A01 T00331064  RH  049%=      5-min Rain = 0
KLD1 011011Z 05018KT 03/M06 A3019 RMK A01 T00321059  RH  051%=      5-min Rain = 0
KLD1 011012Z 05017G22KT 03/M06 A3019 RMK A01 T00311059  RH  052%=      5-min Rain = 0
KLD1 011013Z 04018G23KT 03/M06 A302 RMK A01 T00311062  RH  051%=      5-min Rain = 0
KLD1 011014Z 04019KT 03/M06 A302 RMK A01 T00311060  RH  051%=      5-min Rain = 0
KLD1 011015Z 04016G21KT 03/M06 A302 RMK A01 T00301057  RH  053%=      5-min Rain = 0
KLD1 011016Z 04016KT 03/M05 A302 RMK A01 T00291053  RH  055%=      5-min Rain = 0
KLD1 011017Z 04018KT 03/M05 A3019 RMK A01 T00281047  RH  058%=      5-min Rain = 0
KLD1 011018Z 04016KT 03/M04 A3019 RMK A01 T00261042  RH  061%=      5-min Rain = 0
KLD1 011019Z 04016KT 03/M04 A3019 RMK A01 T00261042  RH  061%=      5-min Rain = 0
KLD1 011020Z 04017KT 03/M04 A3019 RMK A01 T00251041  RH  061%=      5-min Rain = 0
KLD1 011021Z 04016KT 03/M04 A3019 RMK A01 T00251040  RH  062%=      5-min Rain = 0
KLD1 011022Z 04016KT 03/M04 A3019 RMK A01 T00251039  RH  063%=      5-min Rain = 0
KLD1 011023Z 04014KT 03/M04 A3019 RMK A01 T00251037  RH  064%=      5-min Rain = 0
KLD1 011024Z 04014KT 02/M04 A3019 RMK A01 T00241036  RH  064%=      5-min Rain = 0
KLD1 011025Z 04014KT 02/M04 A3019 RMK A01 T00241035  RH  065%=      5-min Rain = 0
KLD1 011026Z 04014KT 02/M03 A3019 RMK A01 T00241033  RH  066%=      5-min Rain = 0
KLD1 011027Z 05014KT 03/M03 A3019 RMK A01 T00251032  RH  066%=      5-min Rain = 0
KLD1 011028Z 05014KT 03/M03 A3019 RMK A01 T00251030  RH  067%=      5-min Rain = 0
KLD1 011029Z 04013KT 03/M03 A3019 RMK A01 T00251029  RH  067%=      5-min Rain = 0
KLD1 011030Z 04015KT 03/M03 A3019 RMK A01 T00251028  RH  068%=      5-min Rain = 0
KLD1 011031Z 04015KT 03/M03 A3019 RMK A01 T00251028  RH  068%=      5-min Rain = 0
KLD1 011032Z 04013KT 03/M03 A3019 RMK A01 T00251027  RH  069%=      5-min Rain = 0
KLD1 011033Z 04013KT 03/M03 A3019 RMK A01 T00251027  RH  068%=      5-min Rain = 0
KLD1 011034Z 04012KT 03/M03 A3019 RMK A01 T00251028  RH  068%=      5-min Rain = 0
KLD1 011035Z 05012KT 03/M03 A302 RMK A01 T00251028  RH  068%=      5-min Rain = 0
KLD1 011036Z 05012KT 03/M03 A302 RMK A01 T00251028  RH  068%=      5-min Rain = 0
KLD1 011037Z 05012KT 03/M03 A302 RMK A01 T00261027  RH  068%=      5-min Rain = 0
KLD1 011038Z 05011KT 03/M03 A302 RMK A01 T00261027  RH  068%=      5-min Rain = 0
KLD1 011039Z 05011KT 03/M03 A302 RMK A01 T00261028  RH  067%=      5-min Rain = 0
KLD1 011040Z 05012KT 03/M03 A302 RMK A01 T00271029  RH  066%=      5-min Rain = 0
KLD1 011041Z 05011KT 03/M03 A3019 RMK A01 T00271031  RH  066%=      5-min Rain = 0
KLD1 011042Z 05009KT 03/M03 A3019 RMK A01 T00281032  RH  065%=      5-min Rain = 0
KLD1 011043Z 04009KT 03/M03 A302 RMK A01 T00281033  RH  064%=      5-min Rain = 0
KLD1 011044Z 04010KT 03/M03 A302 RMK A01 T00281033  RH  064%=      5-min Rain = 0
KLD1 011045Z 04010KT 03/M03 A302 RMK A01 T00281034  RH  063%=      5-min Rain = 0
KLD1 011046Z 04009KT 03/M04 A302 RMK A01 T00281035  RH  063%=      5-min Rain = 0
KLD1 011047Z 05009KT 03/M04 A302 RMK A01 T00291036  RH  063%=      5-min Rain = 0
KLD1 011048Z 04007KT 03/M04 A302 RMK A01 T00281036  RH  062%=      5-min Rain = 0
KLD1 011049Z 04008KT 03/M04 A302 RMK A01 T00291036  RH  062%=      5-min Rain = 0
KLD1 011050Z 03007KT 03/M04 A302 RMK A01 T00291037  RH  062%=      5-min Rain = 0
KLD1 011051Z 02007KT 03/M04 A302 RMK A01 T00291037  RH  062%=      5-min Rain = 0
KLD1 011052Z 02009KT 03/M04 A302 RMK A01 T00291037  RH  062%=      5-min Rain = 0
KLD1 011053Z 02008KT 03/M04 A302 RMK A01 T00301037  RH  062%=      5-min Rain = 0
KLD1 011054Z 01008KT 03/M04 A3021 RMK A01 T00301038  RH  061%=      5-min Rain = 0
KLD1 011055Z 01008KT 03/M04 A302 RMK A01 T00301039  RH  060%=      5-min Rain = 0
KLD1 011056Z 01008KT 03/M04 A302 RMK A01 T00311041  RH  059%=      5-min Rain = 0
KLD1 011057Z 00008KT 03/M04 A3021 RMK A01 T00311044  RH  058%=      5-min Rain = 0
KLD1 011058Z 36009KT 03/M05 A3021 RMK A01 T00311046  RH  057%=      5-min Rain = 0
KLD1 011059Z 36009KT 03/M05 A3021 RMK A01 T00321048  RH  056%=      5-min Rain = 0
KLD1 011100Z 35009KT 03/M05 A3021 RMK A01 T00321051  RH  055%=      5-min Rain = 0
KLD1 011101Z 35008KT 03/M05 A3021 RMK A01 T00321054  RH  053%=      5-min Rain = 0
KLD1 011102Z 35008KT 03/M06 A302 RMK A01 T00331055  RH  053%=      5-min Rain = 0
KLD1 011103Z 35007KT 03/M06 A302 RMK A01 T00331055  RH  052%=      5-min Rain = 0
KLD1 011104Z 35007KT 03/M06 A3021 RMK A01 T00331055  RH  052%=      5-min Rain = 0
KLD1 011105Z 35006KT 03/M06 A3021 RMK A01 T00341056  RH  052%=      5-min Rain = 0
KLD1 011106Z 34007KT 03/M06 A3021 RMK A01 T00341060  RH  050%=      5-min Rain = 0
KLD1 011107Z 34008KT 04/M07 A3021 RMK A01 T00351069  RH  047%=      5-min Rain = 0
KLD1 011108Z 35009KT 04/M08 A3021 RMK A01 T00351077  RH  044%=      5-min Rain = 0
KLD1 011109Z 35010KT 04/M08 A3021 RMK A01 T00361082  RH  042%=      5-min Rain = 0
KLD1 011110Z 35010KT 04/M09 A3021 RMK A01 T00361086  RH  040%=      5-min Rain = 0
KLD1 011111Z 35010KT 04/M09 A3021 RMK A01 T00371089  RH  039%=      5-min Rain = 0
KLD1 011112Z 35010KT 04/M09 A3021 RMK A01 T00371091  RH  039%=      5-min Rain = 0
KLD1 011113Z 36009KT 04/M09 A3022 RMK A01 T00371091  RH  039%=      5-min Rain = 0
KLD1 011114Z 35009KT 04/M09 A3022 RMK A01 T00371092  RH  039%=      5-min Rain = 0
KLD1 011115Z 35009KT 04/M09 A3022 RMK A01 T00371092  RH  038%=      5-min Rain = 0
KLD1 011116Z 36009KT 04/M09 A3022 RMK A01 T00371093  RH  038%=      5-min Rain = 0
KLD1 011117Z 36009KT 04/M10 A3022 RMK A01 T00371095  RH  038%=      5-min Rain = 0
KLD1 011118Z 36009KT 04/M09 A3022 RMK A01 T00371094  RH  038%=      5-min Rain = 0
KLD1 011119Z 36010KT 04/M09 A3021 RMK A01 T00371094  RH  038%=      5-min Rain = 0
KLD1 011120Z 36009KT 04/M09 A3021 RMK A01 T00371094  RH  038%=      5-min Rain = 0
KLD1 011121Z 36009KT 04/M09 A3021 RMK A01 T00371094  RH  038%=      5-min Rain = 0
KLD1 011122Z 36008KT 04/M09 A3021 RMK A01 T00371093  RH  038%=      5-min Rain = 0
KLD1 011123Z 36009KT 04/M09 A3021 RMK A01 T00371093  RH  038%=      5-min Rain = 0
KLD1 011124Z 00009KT 04/M10 A3022 RMK A01 T00371095  RH  038%=      5-min Rain = 0
KLD1 011125Z 36009KT 04/M10 A3022 RMK A01 T00371095  RH  037%=      5-min Rain = 0
KLD1 011126Z 00010KT 04/M10 A3022 RMK A01 T00371096  RH  037%=      5-min Rain = 0
KLD1 011127Z 36010KT 04/M10 A3022 RMK A01 T00371097  RH  037%=      5-min Rain = 0
KLD1 011128Z 00010KT 04/M10 A3022 RMK A01 T00371097  RH  037%=      5-min Rain = 0
KLD1 011129Z 01010KT 04/M10 A3022 RMK A01 T00371096  RH  037%=      5-min Rain = 0
KLD1 011130Z 00011KT 04/M10 A3021 RMK A01 T00371097  RH  037%=      5-min Rain = 0
KLD1 011131Z 01011KT 04/M10 A3021 RMK A01 T00371097  RH  037%=      5-min Rain = 0
KLD1 011132Z 01011KT 04/M10 A3021 RMK A01 T00371097  RH  037%=      5-min Rain = 0
KLD1 011133Z 01010KT 04/M10 A3021 RMK A01 T00371097  RH  037%=      5-min Rain = 0
KLD1 011134Z 01009KT 04/M10 A3022 RMK A01 T00371097  RH  037%=      5-min Rain = 0
KLD1 011135Z 00010KT 04/M10 A3022 RMK A01 T00371097  RH  037%=      5-min Rain = 0
KLD1 011136Z 01010KT 04/M10 A3022 RMK A01 T00371097  RH  037%=      5-min Rain = 0
KLD1 011137Z 01010KT 04/M10 A3022 RMK A01 T00371098  RH  037%=      5-min Rain = 0
KLD1 011138Z 00010KT 04/M10 A3022 RMK A01 T00371097  RH  037%=      5-min Rain = 0
KLD1 011139Z 01011KT 04/M10 A3022 RMK A01 T00371098  RH  037%=      5-min Rain = 0
KLD1 011140Z 01009KT 04/M10 A3022 RMK A01 T00371098  RH  037%=      5-min Rain = 0
KLD1 011141Z 01009KT 04/M10 A3022 RMK A01 T00371098  RH  037%=      5-min Rain = 0
KLD1 011142Z 01009KT 04/M10 A3022 RMK A01 T00371097  RH  037%=      5-min Rain = 0
KLD1 011143Z 01010KT 04/M10 A3022 RMK A01 T00371097  RH  037%=      5-min Rain = 0
KLD1 011144Z 01011KT 04/M10 A3022 RMK A01 T00371097  RH  037%=      5-min Rain = 0
KLD1 011145Z 02011KT 04/M10 A3022 RMK A01 T00371098  RH  037%=      5-min Rain = 0
KLD1 011146Z 01010KT 04/M10 A3022 RMK A01 T00371098  RH  037%=      5-min Rain = 0
KLD1 011147Z 02010KT 04/M10 A3022 RMK A01 T00371098  RH  037%=      5-min Rain = 0
KLD1 011148Z 02011KT 04/M10 A3022 RMK A01 T00371097  RH  037%=      5-min Rain = 0
KLD1 011149Z 02012KT 04/M10 A3023 RMK A01 T00371097  RH  037%=      5-min Rain = 0
KLD1 011150Z 02012KT 04/M10 A3023 RMK A01 T00371097  RH  037%=      5-min Rain = 0
KLD1 011151Z 03009KT 04/M10 A3023 RMK A01 T00371097  RH  037%=      5-min Rain = 0
KLD1 011152Z 03011KT 04/M10 A3023 RMK A01 T00371097  RH  037%=      5-min Rain = 0
KLD1 011153Z 03012KT 04/M10 A3023 RMK A01 T00371097  RH  037%=      5-min Rain = 0
KLD1 011154Z 03010KT 04/M10 A3023 RMK A01 T00371097  RH  037%=      5-min Rain = 0
KLD1 011155Z 03010KT 04/M10 A3023 RMK A01 T00371097  RH  037%=      5-min Rain = 0
KLD1 011156Z 04011KT 04/M10 A3023 RMK A01 T00361096  RH  037%=      5-min Rain = 0
KLD1 011157Z 04010KT 04/M10 A3023 RMK A01 T00361095  RH  038%=      5-min Rain = 0
KLD1 011158Z 04010KT 04/M10 A3023 RMK A01 T00361095  RH  038%=      5-min Rain = 0
KLD1 011159Z 04009KT 04/M09 A3023 RMK A01 T00361094  RH  038%=      5-min Rain = 0
KLD1 011200Z 04010KT 04/M09 A3023 RMK A01 T00361094  RH  038%=      5-min Rain = 0
KLD1 011201Z 04011KT 04/M10 A3023 RMK A01 T00361095  RH  038%=      5-min Rain = 0
KLD1 011202Z 04011KT 04/M10 A3023 RMK A01 T00361096  RH  038%=      5-min Rain = 0
KLD1 011203Z 04010KT 04/M10 A3023 RMK A01 T00361096  RH  037%=      5-min Rain = 0
KLD1 011204Z 04011KT 04/M10 A3023 RMK A01 T00361096  RH  037%=      5-min Rain = 0
KLD1 011205Z 04013KT 04/M10 A3023 RMK A01 T00361097  RH  037%=      5-min Rain = 0
KLD1 011206Z 04013KT 04/M10 A3023 RMK A01 T00361097  RH  037%=      5-min Rain = 0
KLD1 011207Z 04011KT 04/M10 A3023 RMK A01 T00361098  RH  037%=      5-min Rain = 0
KLD1 011208Z 03010KT 04/M10 A3023 RMK A01 T00361097  RH  037%=      5-min Rain = 0
KLD1 011209Z 03011KT 04/M10 A3024 RMK A01 T00361097  RH  037%=      5-min Rain = 0
KLD1 011210Z 03012KT 04/M10 A3024 RMK A01 T00351097  RH  037%=      5-min Rain = 0
KLD1 011211Z 03011KT 04/M10 A3024 RMK A01 T00351097  RH  037%=      5-min Rain = 0
KLD1 011212Z 03011KT 04/M10 A3024 RMK A01 T00351097  RH  037%=      5-min Rain = 0
KLD1 011213Z 03011KT 04/M10 A3024 RMK A01 T00351096  RH  038%=      5-min Rain = 0
KLD1 011214Z 03012KT 04/M10 A3024 RMK A01 T00351097  RH  038%=      5-min Rain = 0
KLD1 011215Z 03013KT 04/M10 A3024 RMK A01 T00351097  RH  037%=      5-min Rain = 0
KLD1 011216Z 04013KT 04/M10 A3024 RMK A01 T00351098  RH  037%=      5-min Rain = 0
KLD1 011217Z 03011KT 04/M10 A3024 RMK A01 T00351098  RH  037%=      5-min Rain = 0
KLD1 011218Z 03011KT 04/M10 A3024 RMK A01 T00351098  RH  037%=      5-min Rain = 0
KLD1 011219Z 04011KT 04/M10 A3024 RMK A01 T00351097  RH  037%=      5-min Rain = 0
KLD1 011220Z 03011KT 04/M10 A3024 RMK A01 T00351097  RH  038%=      5-min Rain = 0
KLD1 011221Z 03009KT 04/M10 A3024 RMK A01 T00351096  RH  038%=      5-min Rain = 0
KLD1 011222Z 03009KT 04/M10 A3024 RMK A01 T00351096  RH  038%=      5-min Rain = 0
KLD1 011223Z 03010KT 03/M10 A3024 RMK A01 T00341096  RH  038%=      5-min Rain = 0
KLD1 011224Z 03010KT 03/M10 A3025 RMK A01 T00341096  RH  038%=      5-min Rain = 0
KLD1 011225Z 03010KT 03/M10 A3025 RMK A01 T00341096  RH  038%=      5-min Rain = 0
KLD1 011226Z 03010KT 03/M10 A3025 RMK A01 T00341096  RH  038%=      5-min Rain = 0
KLD1 011227Z 03010KT 03/M10 A3025 RMK A01 T00341096  RH  038%=      5-min Rain = 0
KLD1 011228Z 03011KT 03/M10 A3025 RMK A01 T00341096  RH  038%=      5-min Rain = 0
KLD1 011229Z 03011KT 03/M10 A3025 RMK A01 T00341096  RH  038%=      5-min Rain = 0
KLD1 011230Z 04011KT 03/M10 A3025 RMK A01 T00341096  RH  038%=      5-min Rain = 0
KLD1 011231Z 04012KT 03/M10 A3025 RMK A01 T00341096  RH  038%=      5-min Rain = 0
KLD1 011232Z 04012KT 03/M10 A3024 RMK A01 T00341096  RH  038%=      5-min Rain = 0
KLD1 011233Z 04012KT 03/M10 A3024 RMK A01 T00341096  RH  038%=      5-min Rain = 0
KLD1 011234Z 03013KT 03/M10 A3024 RMK A01 T00341096  RH  038%=      5-min Rain = 0
KLD1 011235Z 04012KT 03/M10 A3024 RMK A01 T00331097  RH  038%=      5-min Rain = 0
KLD1 011236Z 04010KT 03/M10 A3024 RMK A01 T00331096  RH  038%=      5-min Rain = 0
KLD1 011237Z 04010KT 03/M10 A3024 RMK A01 T00331096  RH  038%=      5-min Rain = 0
KLD1 011238Z 03012KT 03/M10 A3024 RMK A01 T00321096  RH  039%=      5-min Rain = 0
KLD1 011239Z 04012KT 03/M10 A3024 RMK A01 T00321096  RH  039%=      5-min Rain = 0
KLD1 011240Z 04012KT 03/M10 A3024 RMK A01 T00321096  RH  038%=      5-min Rain = 0
KLD1 011241Z 03012KT 03/M10 A3024 RMK A01 T00321096  RH  038%=      5-min Rain = 0
KLD1 011242Z 03011KT 03/M10 A3025 RMK A01 T00321096  RH  039%=      5-min Rain = 0
KLD1 011243Z 03012KT 03/M10 A3025 RMK A01 T00321096  RH  039%=      5-min Rain = 0
KLD1 011244Z 03013KT 03/M10 A3025 RMK A01 T00321096  RH  039%=      5-min Rain = 0
KLD1 011245Z 03011KT 03/M10 A3025 RMK A01 T00321096  RH  038%=      5-min Rain = 0
KLD1 011246Z 04012KT 03/M10 A3025 RMK A01 T00321096  RH  038%=      5-min Rain = 0
KLD1 011247Z 04011KT 03/M10 A3025 RMK A01 T00321096  RH  038%=      5-min Rain = 0
KLD1 011248Z 04011KT 03/M10 A3025 RMK A01 T00321096  RH  038%=      5-min Rain = 0
KLD1 011249Z 04010KT 03/M10 A3025 RMK A01 T00321096  RH  038%=      5-min Rain = 0
KLD1 011250Z 04012KT 03/M10 A3025 RMK A01 T00321095  RH  039%=      5-min Rain = 0
KLD1 011251Z 04010KT 03/M10 A3025 RMK A01 T00321095  RH  039%=      5-min Rain = 0
KLD1 011252Z 04011KT 03/M10 A3025 RMK A01 T00321095  RH  039%=      5-min Rain = 0
KLD1 011253Z 04011KT 03/M10 A3025 RMK A01 T00321095  RH  039%=      5-min Rain = 0
KLD1 011254Z 04011KT 03/M10 A3025 RMK A01 T00321095  RH  039%=      5-min Rain = 0
KLD1 011255Z 04012KT 03/M10 A3025 RMK A01 T00321095  RH  039%=      5-min Rain = 0
KLD1 011256Z 04012KT 03/M10 A3025 RMK A01 T00321095  RH  039%=      5-min Rain = 0
KLD1 011257Z 04011KT 03/M10 A3025 RMK A01 T00321095  RH  039%=      5-min Rain = 0
KLD1 011258Z 04010KT 03/M09 A3025 RMK A01 T00321094  RH  039%=      5-min Rain = 0
KLD1 011259Z 04011KT 03/M09 A3025 RMK A01 T00321094  RH  039%=      5-min Rain = 0
KLD1 011300Z 04011KT 03/M09 A3025 RMK A01 T00321094  RH  039%=      5-min Rain = 0
KLD1 011301Z 04011KT 03/M09 A3025 RMK A01 T00321094  RH  039%=      5-min Rain = 0
KLD1 011302Z 04012KT 03/M09 A3025 RMK A01 T00311094  RH  039%=      5-min Rain = 0
KLD1 011303Z 04012KT 03/M09 A3025 RMK A01 T00311094  RH  039%=      5-min Rain = 0
KLD1 011304Z 04010KT 03/M09 A3026 RMK A01 T00311094  RH  039%=      5-min Rain = 0
KLD1 011305Z 05012KT 03/M09 A3026 RMK A01 T00311094  RH  039%=      5-min Rain = 0
KLD1 011306Z 04011KT 03/M09 A3026 RMK A01 T00311094  RH  039%=      5-min Rain = 0
KLD1 011307Z 04011KT 03/M09 A3026 RMK A01 T00311094  RH  039%=      5-min Rain = 0
KLD1 011308Z 04011KT 03/M09 A3026 RMK A01 T00311094  RH  039%=      5-min Rain = 0
KLD1 011309Z 04012KT 03/M09 A3026 RMK A01 T00311094  RH  039%=      5-min Rain = 0
KLD1 011310Z 05011KT 03/M09 A3026 RMK A01 T00311093  RH  039%=      5-min Rain = 0
KLD1 011311Z 05011KT 03/M09 A3026 RMK A01 T00311093  RH  040%=      5-min Rain = 0
KLD1 011312Z 05012KT 03/M09 A3026 RMK A01 T00311093  RH  040%=      5-min Rain = 0
KLD1 011313Z 05011KT 03/M09 A3026 RMK A01 T00311093  RH  040%=      5-min Rain = 0
KLD1 011314Z 05011KT 03/M09 A3026 RMK A01 T00311093  RH  040%=      5-min Rain = 0
KLD1 011315Z 05012G17KT 03/M09 A3026 RMK A01 T00311093  RH  040%=      5-min Rain = 0
KLD1 011316Z 04014KT 03/M09 A3026 RMK A01 T00311093  RH  040%=      5-min Rain = 0
KLD1 011317Z 04013KT 03/M09 A3026 RMK A01 T00311093  RH  040%=      5-min Rain = 0
KLD1 011318Z 04013KT 03/M09 A3026 RMK A01 T00311092  RH  040%=      5-min Rain = 0
KLD1 011319Z 04012KT 03/M09 A3026 RMK A01 T00311092  RH  040%=      5-min Rain = 0
KLD1 011320Z 04013KT 03/M09 A3026 RMK A01 T00311092  RH  040%=      5-min Rain = 0
KLD1 011321Z 05012KT 03/M09 A3026 RMK A01 T00301092  RH  040%=      5-min Rain = 0
KLD1 011322Z 04013KT 03/M09 A3026 RMK A01 T00301092  RH  040%=      5-min Rain = 0
KLD1 011323Z 04014KT 03/M09 A3026 RMK A01 T00301092  RH  040%=      5-min Rain = 0
KLD1 011324Z 04013KT 03/M09 A3026 RMK A01 T00301092  RH  040%=      5-min Rain = 0
KLD1 011325Z 04013KT 03/M09 A3026 RMK A01 T00301091  RH  040%=      5-min Rain = 0
KLD1 011326Z 04011KT 03/M09 A3026 RMK A01 T00301091  RH  041%=      5-min Rain = 0
KLD1 011327Z 04013KT 03/M09 A3026 RMK A01 T00301091  RH  041%=      5-min Rain = 0
KLD1 011328Z 04012KT 03/M09 A3026 RMK A01 T00301091  RH  041%=      5-min Rain = 0
KLD1 011329Z 04013KT 03/M09 A3026 RMK A01 T00301091  RH  041%=      5-min Rain = 0
KLD1 011330Z 04011KT 03/M09 A3026 RMK A01 T00301091  RH  041%=      5-min Rain = 0
KLD1 011331Z 04013KT 03/M09 A3026 RMK A01 T00301091  RH  041%=      5-min Rain = 0
KLD1 011332Z 04012KT 03/M09 A3026 RMK A01 T00301091  RH  041%=      5-min Rain = 0
KLD1 011333Z 04012KT 03/M09 A3026 RMK A01 T00301091  RH  041%=      5-min Rain = 0
KLD1 011334Z 04011KT 03/M09 A3026 RMK A01 T00301091  RH  041%=      5-min Rain = 0
KLD1 011335Z 04012KT 03/M09 A3026 RMK A01 T00301091  RH  041%=      5-min Rain = 0
KLD1 011336Z 04012KT 03/M09 A3026 RMK A01 T00301091  RH  041%=      5-min Rain = 0
KLD1 011337Z 03013KT 03/M09 A3026 RMK A01 T00301091  RH  041%=      5-min Rain = 0
KLD1 011338Z 03012KT 03/M09 A3026 RMK A01 T00301092  RH  040%=      5-min Rain = 0
KLD1 011339Z 03012KT 03/M09 A3027 RMK A01 T00301092  RH  040%=      5-min Rain = 0
KLD1 011340Z 03012KT 03/M09 A3027 RMK A01 T00301092  RH  040%=      5-min Rain = 0
KLD1 011341Z 03011KT 03/M09 A3027 RMK A01 T00301092  RH  040%=      5-min Rain = 0
KLD1 011342Z 03012KT 03/M09 A3027 RMK A01 T00301091  RH  040%=      5-min Rain = 0
KLD1 011343Z 04012KT 03/M09 A3027 RMK A01 T00301092  RH  040%=      5-min Rain = 0
KLD1 011344Z 03012KT 03/M09 A3027 RMK A01 T00301091  RH  040%=      5-min Rain = 0
KLD1 011345Z 03011KT 03/M09 A3027 RMK A01 T00301092  RH  040%=      5-min Rain = 0
KLD1 011346Z 03013KT 03/M09 A3027 RMK A01 T00301091  RH  040%=      5-min Rain = 0
KLD1 011347Z 03011KT 03/M09 A3027 RMK A01 T00301092  RH  040%=      5-min Rain = 0
KLD1 011348Z 03013KT 03/M09 A3027 RMK A01 T00301091  RH  040%=      5-min Rain = 0
KLD1 011349Z 04013KT 03/M09 A3028 RMK A01 T00301092  RH  040%=      5-min Rain = 0
KLD1 011350Z 04013KT 03/M09 A3028 RMK A01 T00301092  RH  040%=      5-min Rain = 0
KLD1 011351Z 04012KT 03/M09 A3028 RMK A01 T00311091  RH  040%=      5-min Rain = 0
KLD1 011352Z 03013KT 03/M09 A3028 RMK A01 T00311091  RH  040%=      5-min Rain = 0
KLD1 011353Z 04013KT 03/M09 A3028 RMK A01 T00311092  RH  040%=      5-min Rain = 0
KLD1 011354Z 04014KT 03/M09 A3028 RMK A01 T00311092  RH  040%=      5-min Rain = 0
KLD1 011355Z 04013KT 03/M09 A3028 RMK A01 T00311092  RH  040%=      5-min Rain = 0
KLD1 011356Z 04014KT 03/M09 A3028 RMK A01 T00311091  RH  040%=      5-min Rain = 0
KLD1 011357Z 04014KT 03/M09 A3028 RMK A01 T00311092  RH  040%=      5-min Rain = 0
KLD1 011358Z 04015KT 03/M09 A3028 RMK A01 T00311092  RH  040%=      5-min Rain = 0
KLD1 011359Z 04015KT 03/M09 A3028 RMK A01 T00311092  RH  040%=      5-min Rain = 0
KLD1 011400Z 03013KT 03/M09 A3028 RMK A01 T00311092  RH  040%=      5-min Rain = 0
KLD1 011401Z 03014KT 03/M09 A3028 RMK A01 T00321091  RH  040%=      5-min Rain = 0
KLD1 011402Z 03013KT 03/M09 A3028 RMK A01 T00321092  RH  040%=      5-min Rain = 0
KLD1 011403Z 04014KT 03/M09 A3028 RMK A01 T00321092  RH  040%=      5-min Rain = 0
KLD1 011404Z 03014KT 03/M09 A3028 RMK A01 T00321092  RH  040%=      5-min Rain = 0
KLD1 011405Z 04014KT 03/M09 A3028 RMK A01 T00321092  RH  040%=      5-min Rain = 0
KLD1 011406Z 03012KT 03/M09 A3028 RMK A01 T00321092  RH  040%=      5-min Rain = 0
KLD1 011407Z 04013KT 03/M09 A3028 RMK A01 T00331092  RH  040%=      5-min Rain = 0
KLD1 011408Z 03013KT 03/M09 A3028 RMK A01 T00331092  RH  040%=      5-min Rain = 0
KLD1 011409Z 03013KT 03/M09 A3028 RMK A01 T00331092  RH  040%=      5-min Rain = 0
KLD1 011410Z 03012KT 03/M09 A3028 RMK A01 T00331091  RH  040%=      5-min Rain = 0
KLD1 011411Z 03012KT 03/M09 A3028 RMK A01 T00331091  RH  040%=      5-min Rain = 0
KLD1 011412Z 03010KT 03/M09 A3029 RMK A01 T00331092  RH  040%=      5-min Rain = 0
KLD1 011413Z 03010KT 03/M09 A3029 RMK A01 T00331090  RH  040%=      5-min Rain = 0
KLD1 011414Z 03012KT 03/M09 A3029 RMK A01 T00341089  RH  040%=      5-min Rain = 0
KLD1 011415Z 03012KT 03/M09 A3029 RMK A01 T00341091  RH  040%=      5-min Rain = 0
KLD1 011416Z 03013KT 03/M09 A3029 RMK A01 T00341092  RH  039%=      5-min Rain = 0
KLD1 011417Z 03011KT 03/M09 A3029 RMK A01 T00331092  RH  039%=      5-min Rain = 0
KLD1 011418Z 03011KT 03/M09 A3029 RMK A01 T00331092  RH  039%=      5-min Rain = 0
KLD1 011419Z 03012KT 03/M09 A3029 RMK A01 T00341092  RH  039%=      5-min Rain = 0
KLD1 011420Z 03013KT 03/M09 A3029 RMK A01 T00341092  RH  039%=      5-min Rain = 0
KLD1 011421Z 03014KT 03/M09 A303 RMK A01 T00331093  RH  039%=      5-min Rain = 0
KLD1 011422Z 03014KT 03/M09 A303 RMK A01 T00331094  RH  039%=      5-min Rain = 0
KLD1 011423Z 04013KT 03/M10 A303 RMK A01 T00321095  RH  039%=      5-min Rain = 0
KLD1 011424Z 03012KT 03/M10 A303 RMK A01 T00321095  RH  039%=      5-min Rain = 0
KLD1 011425Z 02011KT 03/M09 A303 RMK A01 T00321093  RH  039%=      5-min Rain = 0
KLD1 011426Z 02010KT 03/M09 A303 RMK A01 T00331092  RH  039%=      5-min Rain = 0
KLD1 011427Z 02011KT 03/M09 A303 RMK A01 T00331091  RH  040%=      5-min Rain = 0
KLD1 011428Z 02011KT 03/M09 A303 RMK A01 T00341091  RH  040%=      5-min Rain = 0
KLD1 011429Z 02012KT 03/M09 A303 RMK A01 T00341092  RH  039%=      5-min Rain = 0
KLD1 011430Z 02011KT 03/M09 A303 RMK A01 T00341092  RH  039%=      5-min Rain = 0
KLD1 011431Z 01012KT 03/M09 A303 RMK A01 T00341092  RH  039%=      5-min Rain = 0
KLD1 011432Z 01012KT 03/M09 A303 RMK A01 T00341093  RH  039%=      5-min Rain = 0
KLD1 011433Z 02010KT 03/M09 A303 RMK A01 T00341092  RH  039%=      5-min Rain = 0
KLD1 011434Z 02010KT 03/M09 A3031 RMK A01 T00341091  RH  039%=      5-min Rain = 0
KLD1 011435Z 01011KT 03/M09 A3031 RMK A01 T00341091  RH  039%=      5-min Rain = 0
KLD1 011436Z 02012KT 03/M09 A3031 RMK A01 T00341092  RH  039%=      5-min Rain = 0
KLD1 011437Z 01013KT 03/M09 A3031 RMK A01 T00341093  RH  039%=      5-min Rain = 0
KLD1 011438Z 02013KT 03/M10 A3031 RMK A01 T00341095  RH  038%=      5-min Rain = 0
KLD1 011439Z 02011KT 03/M10 A3031 RMK A01 T00341096  RH  038%=      5-min Rain = 0
KLD1 011440Z 01012KT 03/M10 A3031 RMK A01 T00341095  RH  038%=      5-min Rain = 0
KLD1 011441Z 01013KT 03/M10 A3031 RMK A01 T00341095  RH  038%=      5-min Rain = 0
KLD1 011442Z 01012KT 03/M10 A3031 RMK A01 T00341096  RH  038%=      5-min Rain = 0
KLD1 011443Z 02011KT 03/M10 A3031 RMK A01 T00341097  RH  038%=      5-min Rain = 0
KLD1 011444Z 02011KT 03/M10 A3031 RMK A01 T00341097  RH  038%=      5-min Rain = 0
KLD1 011445Z 02010KT 03/M10 A3032 RMK A01 T00341097  RH  038%=      5-min Rain = 0
KLD1 011446Z 01011KT 03/M10 A3032 RMK A01 T00341096  RH  038%=      5-min Rain = 0
KLD1 011447Z 01011KT 04/M10 A3032 RMK A01 T00351095  RH  038%=      5-min Rain = 0
KLD1 011448Z 01011KT 03/M09 A3032 RMK A01 T00341094  RH  038%=      5-min Rain = 0
KLD1 011449Z 02013KT 03/M09 A3032 RMK A01 T00341094  RH  039%=      5-min Rain = 0
KLD1 011450Z 02011KT 03/M10 A3032 RMK A01 T00341095  RH  038%=      5-min Rain = 0
KLD1 011451Z 01012KT 03/M10 A3032 RMK A01 T00341096  RH  038%=      5-min Rain = 0
KLD1 011452Z 01012KT 04/M10 A3032 RMK A01 T00351095  RH  038%=      5-min Rain = 0
KLD1 011453Z 02012KT 03/M10 A3032 RMK A01 T00341095  RH  038%=      5-min Rain = 0
KLD1 011454Z 02013KT 04/M10 A3032 RMK A01 T00351096  RH  038%=      5-min Rain = 0
KLD1 011455Z 02012KT 03/M10 A3033 RMK A01 T00341097  RH  038%=      5-min Rain = 0
KLD1 011456Z 02013KT 03/M10 A3033 RMK A01 T00341098  RH  037%=      5-min Rain = 0
KLD1 011457Z 03013KT 03/M10 A3033 RMK A01 T00341098  RH  037%=      5-min Rain = 0
KLD1 011458Z 02013KT 03/M10 A3033 RMK A01 T00341099  RH  037%=      5-min Rain = 0
KLD1 011459Z 02013KT 03/M10 A3033 RMK A01 T00341099  RH  037%=      5-min Rain = 0
KLD1 011500Z 02012KT 03/M10 A3033 RMK A01 T00341099  RH  037%=      5-min Rain = 0
KLD1 011501Z 02010KT 04/M10 A3033 RMK A01 T00351099  RH  037%=      5-min Rain = 0
KLD1 011502Z 03013KT 04/M10 A3033 RMK A01 T00351098  RH  037%=      5-min Rain = 0
KLD1 011503Z 03013KT 04/M10 A3033 RMK A01 T00361101  RH  036%=      5-min Rain = 0
KLD1 011504Z 03013KT 04/M10 A3034 RMK A01 T00351102  RH  036%=      5-min Rain = 0
KLD1 011505Z 03012KT 04/M10 A3034 RMK A01 T00351102  RH  036%=      5-min Rain = 0
KLD1 011506Z 03011KT 04/M10 A3034 RMK A01 T00351101  RH  036%=      5-min Rain = 0
KLD1 011507Z 02011KT 04/M10 A3034 RMK A01 T00361101  RH  036%=      5-min Rain = 0
KLD1 011508Z 01012KT 04/M10 A3034 RMK A01 T00361100  RH  036%=      5-min Rain = 0
KLD1 011509Z 02011KT 04/M10 A3034 RMK A01 T00361100  RH  036%=      5-min Rain = 0
KLD1 011510Z 03011KT 04/M10 A3034 RMK A01 T00361099  RH  036%=      5-min Rain = 0
KLD1 011511Z 02013KT 04/M10 A3034 RMK A01 T00371099  RH  036%=      5-min Rain = 0
KLD1 011512Z 02012KT 04/M10 A3034 RMK A01 T00371101  RH  036%=      5-min Rain = 0
KLD1 011513Z 03013KT 04/M10 A3034 RMK A01 T00371101  RH  036%=      5-min Rain = 0
KLD1 011514Z 02015KT 04/M10 A3034 RMK A01 T00371103  RH  035%=      5-min Rain = 0
KLD1 011515Z 02013KT 04/M11 A3034 RMK A01 T00371105  RH  035%=      5-min Rain = 0
KLD1 011516Z 03013KT 04/M10 A3034 RMK A01 T00371104  RH  035%=      5-min Rain = 0
KLD1 011517Z 03013KT 04/M10 A3034 RMK A01 T00381104  RH  035%=      5-min Rain = 0
KLD1 011518Z 03013KT 04/M11 A3035 RMK A01 T00381105  RH  034%=      5-min Rain = 0
KLD1 011519Z 03011KT 04/M11 A3035 RMK A01 T00371106  RH  034%=      5-min Rain = 0
KLD1 011520Z 03010KT 04/M10 A3035 RMK A01 T00381103  RH  035%=      5-min Rain = 0
KLD1 011521Z 04011KT 04/M10 A3035 RMK A01 T00401102  RH  035%=      5-min Rain = 0
KLD1 011522Z 04013KT 04/M11 A3035 RMK A01 T00391105  RH  034%=      5-min Rain = 0
KLD1 011523Z 05011KT 04/M11 A3035 RMK A01 T00391106  RH  034%=      5-min Rain = 0
KLD1 011524Z 04011KT 04/M11 A3035 RMK A01 T00391105  RH  034%=      5-min Rain = 0
KLD1 011525Z 03011KT 04/M11 A3035 RMK A01 T00391106  RH  034%=      5-min Rain = 0
KLD1 011526Z 04010KT 04/M11 A3035 RMK A01 T00381107  RH  034%=      5-min Rain = 0
KLD1 011527Z 03008KT 04/M11 A3035 RMK A01 T00381107  RH  034%=      5-min Rain = 0
KLD1 011528Z 04009KT 04/M10 A3035 RMK A01 T00391104  RH  034%=      5-min Rain = 0
KLD1 011529Z 04011KT 04/M10 A3035 RMK A01 T00401103  RH  034%=      5-min Rain = 0
KLD1 011530Z 03010KT 04/M10 A3035 RMK A01 T00401103  RH  034%=      5-min Rain = 0
KLD1 011531Z 03011KT 04/M10 A3035 RMK A01 T00401104  RH  034%=      5-min Rain = 0
KLD1 011532Z 03012KT 04/M11 A3035 RMK A01 T00391105  RH  034%=      5-min Rain = 0
KLD1 011533Z 03011KT 04/M11 A3035 RMK A01 T00391106  RH  034%=      5-min Rain = 0
KLD1 011534Z 03011KT 04/M11 A3035 RMK A01 T00391106  RH  034%=      5-min Rain = 0
KLD1 011535Z 03011KT 04/M11 A3035 RMK A01 T00391105  RH  034%=      5-min Rain = 0
KLD1 011536Z 03011KT 04/M11 A3035 RMK A01 T00391107  RH  034%=      5-min Rain = 0
KLD1 011537Z 03009KT 04/M11 A3035 RMK A01 T00391107  RH  034%=      5-min Rain = 0
KLD1 011538Z 03011KT 04/M11 A3035 RMK A01 T00391106  RH  034%=      5-min Rain = 0
KLD1 011539Z 02011KT 04/M11 A3035 RMK A01 T00401105  RH  034%=      5-min Rain = 0
KLD1 011540Z 03013KT 04/M10 A3035 RMK A01 T00411104  RH  034%=      5-min Rain = 0
KLD1 011541Z 03010KT 04/M11 A3035 RMK A01 T00411105  RH  034%=      5-min Rain = 0
KLD1 011542Z 03012KT 04/M10 A3035 RMK A01 T00421103  RH  034%=      5-min Rain = 0
KLD1 011543Z 04011KT 04/M10 A3035 RMK A01 T00421104  RH  034%=      5-min Rain = 0
KLD1 011544Z 03011KT 04/M11 A3035 RMK A01 T00411106  RH  033%=      5-min Rain = 0
KLD1 011545Z 03011KT 04/M11 A3035 RMK A01 T00411109  RH  032%=      5-min Rain = 0
KLD1 011546Z 04009KT 04/M11 A3035 RMK A01 T00411109  RH  033%=      5-min Rain = 0
KLD1 011547Z 04009KT 04/M11 A3035 RMK A01 T00421107  RH  033%=      5-min Rain = 0
KLD1 011548Z 03009KT 04/M11 A3035 RMK A01 T00441107  RH  033%=      5-min Rain = 0
KLD1 011549Z 02010KT 05/M11 A3035 RMK A01 T00451105  RH  033%=      5-min Rain = 0
KLD1 011550Z 04009KT 04/M11 A3035 RMK A01 T00441107  RH  033%=      5-min Rain = 0
KLD1 011551Z 03009KT 05/M11 A3035 RMK A01 T00451106  RH  033%=      5-min Rain = 0
KLD1 011552Z 02011KT 05/M11 A3036 RMK A01 T00451107  RH  032%=      5-min Rain = 0
KLD1 011553Z 04011KT 05/M11 A3036 RMK A01 T00451109  RH  032%=      5-min Rain = 0
KLD1 011554Z 04010KT 05/M11 A3036 RMK A01 T00451110  RH  032%=      5-min Rain = 0
KLD1 011555Z 03011KT 04/M11 A3036 RMK A01 T00441111  RH  031%=      5-min Rain = 0
KLD1 011556Z 03012KT 04/M11 A3036 RMK A01 T00441111  RH  031%=      5-min Rain = 0
KLD1 011557Z 03010KT 04/M11 A3036 RMK A01 T00441112  RH  031%=      5-min Rain = 0
KLD1 011558Z 03011KT 04/M11 A3036 RMK A01 T00441113  RH  031%=      5-min Rain = 0
KLD1 011559Z 02010KT 05/M11 A3036 RMK A01 T00471111  RH  031%=      5-min Rain = 0
KLD1 011600Z 04010KT 05/M11 A3036 RMK A01 T00481110  RH  031%=      5-min Rain = 0
KLD1 011601Z 04011KT 05/M11 A3036 RMK A01 T00491109  RH  031%=      5-min Rain = 0
KLD1 011602Z 04010KT 05/M11 A3036 RMK A01 T00501109  RH  031%=      5-min Rain = 0
KLD1 011603Z 03012KT 05/M11 A3036 RMK A01 T00501109  RH  031%=      5-min Rain = 0
KLD1 011604Z 03012KT 05/M11 A3036 RMK A01 T00501108  RH  031%=      5-min Rain = 0
KLD1 011605Z 03008KT 05/M11 A3036 RMK A01 T00501110  RH  030%=      5-min Rain = 0
KLD1 011606Z 02011KT 05/M11 A3036 RMK A01 T00491110  RH  031%=      5-min Rain = 0
KLD1 011607Z 03012KT 05/M11 A3036 RMK A01 T00501110  RH  030%=      5-min Rain = 0
KLD1 011608Z 03010KT 05/M11 A3036 RMK A01 T00501111  RH  030%=      5-min Rain = 0
KLD1 011609Z 03010KT 05/M11 A3036 RMK A01 T00501111  RH  030%=      5-min Rain = 0
KLD1 011610Z 02008KT 05/M11 A3036 RMK A01 T00511111  RH  030%=      5-min Rain = 0
KLD1 011611Z 03009KT 05/M11 A3036 RMK A01 T00511111  RH  030%=      5-min Rain = 0
KLD1 011612Z 03008KT 05/M11 A3036 RMK A01 T00491113  RH  030%=      5-min Rain = 0
KLD1 011613Z 03008KT 05/M11 A3037 RMK A01 T00481112  RH  030%=      5-min Rain = 0
KLD1 011614Z 04009KT 05/M11 A3037 RMK A01 T00511107  RH  031%=      5-min Rain = 0
KLD1 011615Z 05009KT 05/M11 A3037 RMK A01 T00531109  RH  030%=      5-min Rain = 0
KLD1 011616Z 05009KT 05/M11 A3037 RMK A01 T00511111  RH  030%=      5-min Rain = 0
KLD1 011617Z 04008KT 05/M11 A3037 RMK A01 T00501110  RH  030%=      5-min Rain = 0
KLD1 011618Z 03008KT 05/M11 A3037 RMK A01 T00501111  RH  030%=      5-min Rain = 0
KLD1 011619Z 04007KT 05/M11 A3037 RMK A01 T00491112  RH  030%=      5-min Rain = 0
KLD1 011620Z 05006KT 05/M11 A3037 RMK A01 T00481110  RH  031%=      5-min Rain = 0
KLD1 011621Z 04009KT 05/M11 A3037 RMK A01 T00491109  RH  031%=      5-min Rain = 0
KLD1 011622Z 04010KT 05/M11 A3037 RMK A01 T00521106  RH  031%=      5-min Rain = 0
KLD1 011623Z 04007KT 05/M11 A3037 RMK A01 T00531109  RH  030%=      5-min Rain = 0
KLD1 011624Z 05006KT 05/M11 A3037 RMK A01 T00521109  RH  030%=      5-min Rain = 0
KLD1 011625Z 05007KT 05/M11 A3037 RMK A01 T00531108  RH  030%=      5-min Rain = 0
KLD1 011626Z 06006KT 05/M11 A3037 RMK A01 T00531109  RH  030%=      5-min Rain = 0
KLD1 011627Z 06006KT 05/M11 A3037 RMK A01 T00531110  RH  030%=      5-min Rain = 0
KLD1 011628Z 04006KT 05/M11 A3037 RMK A01 T00531109  RH  030%=      5-min Rain = 0
KLD1 011629Z 05006KT 05/M11 A3037 RMK A01 T00541109  RH  030%=      5-min Rain = 0
KLD1 011630Z 06011KT 06/M11 A3037 RMK A01 T00551110  RH  030%=      5-min Rain = 0
KLD1 011631Z 05008KT 06/M11 A3037 RMK A01 T00551111  RH  029%=      5-min Rain = 0
KLD1 011632Z 07006KT 06/M11 A3037 RMK A01 T00551111  RH  029%=      5-min Rain = 0
KLD1 011633Z 06006KT 06/M11 A3037 RMK A01 T00551110  RH  029%=      5-min Rain = 0
KLD1 011634Z 05010KT 06/M11 A3037 RMK A01 T00561109  RH  029%=      5-min Rain = 0
KLD1 011635Z 06009KT 06/M11 A3037 RMK A01 T00561112  RH  028%=      5-min Rain = 0
KLD1 011636Z 07008KT 06/M11 A3037 RMK A01 T00561113  RH  028%=      5-min Rain = 0
KLD1 011637Z 06008KT 06/M12 A3037 RMK A01 T00551115  RH  028%=      5-min Rain = 0
KLD1 011638Z 05008KT 06/M12 A3037 RMK A01 T00551115  RH  028%=      5-min Rain = 0
KLD1 011639Z 06007KT 06/M11 A3037 RMK A01 T00561114  RH  028%=      5-min Rain = 0
KLD1 011640Z 06008KT 06/M11 A3037 RMK A01 T00571114  RH  028%=      5-min Rain = 0
KLD1 011641Z 08009KT 06/M11 A3037 RMK A01 T00591113  RH  028%=      5-min Rain = 0
KLD1 011642Z 09008KT 06/M12 A3037 RMK A01 T00581115  RH  028%=      5-min Rain = 0
KLD1 011643Z 08009KT 06/M12 A3037 RMK A01 T00581116  RH  027%=      5-min Rain = 0
KLD1 011644Z 09008KT 06/M12 A3037 RMK A01 T00571117  RH  027%=      5-min Rain = 0
KLD1 011645Z 09007KT 06/M12 A3037 RMK A01 T00571116  RH  028%=      5-min Rain = 0
KLD1 011646Z 08007KT 06/M12 A3037 RMK A01 T00561116  RH  028%=      5-min Rain = 0
KLD1 011647Z 07007KT 06/M11 A3037 RMK A01 T00571113  RH  028%=      5-min Rain = 0
KLD1 011648Z 07007KT 06/M12 A3037 RMK A01 T00571115  RH  028%=      5-min Rain = 0
KLD1 011649Z 06010KT 06/M12 A3037 RMK A01 T00571115  RH  028%=      5-min Rain = 0
KLD1 011650Z 06009KT 06/M12 A3037 RMK A01 T00581119  RH  027%=      5-min Rain = 0
KLD1 011651Z 07008KT 06/M12 A3037 RMK A01 T00561121  RH  027%=      5-min Rain = 0
KLD1 011652Z 07010KT 06/M12 A3037 RMK A01 T00561120  RH  027%=      5-min Rain = 0
KLD1 011653Z 07010KT 06/M12 A3037 RMK A01 T00561118  RH  027%=      5-min Rain = 0
KLD1 011654Z 07009KT 06/M12 A3037 RMK A01 T00561118  RH  027%=      5-min Rain = 0
KLD1 011655Z 06007KT 05/M12 A3037 RMK A01 T00541119  RH  027%=      5-min Rain = 0
KLD1 011656Z 06006KT 05/M12 A3037 RMK A01 T00541118  RH  028%=      5-min Rain = 0
KLD1 011657Z 07008KT 05/M12 A3037 RMK A01 T00531117  RH  028%=      5-min Rain = 0
KLD1 011658Z 09010KT 05/M12 A3037 RMK A01 T00541115  RH  028%=      5-min Rain = 0
KLD1 011659Z 09008KT 06/M12 A3037 RMK A01 T00551116  RH  028%=      5-min Rain = 0
KLD1 011700Z 09009KT 06/M12 A3037 RMK A01 T00551116  RH  028%=      5-min Rain = 0
KLD1 011701Z 10006KT 05/M12 A3037 RMK A01 T00541117  RH  028%=      5-min Rain = 0
KLD1 011702Z 09005KT 05/M12 A3037 RMK A01 T00541116  RH  028%=      5-min Rain = 0
KLD1 011703Z 08005KT 05/M12 A3037 RMK A01 T00541116  RH  028%=      5-min Rain = 0
KLD1 011704Z 07005KT 05/M12 A3037 RMK A01 T00531117  RH  028%=      5-min Rain = 0
KLD1 011705Z 08006KT 05/M12 A3037 RMK A01 T00541115  RH  028%=      5-min Rain = 0
KLD1 011706Z 07007KT 06/M12 A3037 RMK A01 T00551115  RH  028%=      5-min Rain = 0
KLD1 011707Z 06007KT 06/M12 A3037 RMK A01 T00571116  RH  028%=      5-min Rain = 0
KLD1 011708Z 05007KT 06/M12 A3037 RMK A01 T00571118  RH  027%=      5-min Rain = 0
KLD1 011709Z 04006KT 06/M12 A3037 RMK A01 T00571118  RH  027%=      5-min Rain = 0
KLD1 011710Z 05009KT 06/M11 A3037 RMK A01 T00591114  RH  028%=      5-min Rain = 0
KLD1 011711Z 05008KT 06/M12 A3037 RMK A01 T00601117  RH  027%=      5-min Rain = 0
KLD1 011712Z 04006KT 06/M12 A3037 RMK A01 T00581121  RH  026%=      5-min Rain = 0
KLD1 011713Z 05004KT 06/M12 A3037 RMK A01 T00571122  RH  026%=      5-min Rain = 0
KLD1 011714Z 04005KT 06/M12 A3037 RMK A01 T00571120  RH  027%=      5-min Rain = 0
KLD1 011715Z 04007KT 06/M12 A3037 RMK A01 T00581116  RH  027%=      5-min Rain = 0
KLD1 011716Z 03007KT 06/M12 A3037 RMK A01 T00591116  RH  027%=      5-min Rain = 0
KLD1 011717Z 05007KT 06/M12 A3037 RMK A01 T00601115  RH  027%=      5-min Rain = 0
KLD1 011718Z 08006KT 06/M12 A3038 RMK A01 T00621115  RH  027%=      5-min Rain = 0
KLD1 011719Z 07005KT 06/M12 A3038 RMK A01 T00601118  RH  026%=      5-min Rain = 0
KLD1 011720Z 05005KT 06/M12 A3038 RMK A01 T00591118  RH  027%=      5-min Rain = 0
KLD1 011721Z 03006KT 06/M12 A3038 RMK A01 T00601116  RH  027%=      5-min Rain = 0
KLD1 011722Z 04006KT 06/M12 A3038 RMK A01 T00611115  RH  027%=      5-min Rain = 0
KLD1 011723Z 03007KT 06/M12 A3038 RMK A01 T00621115  RH  027%=      5-min Rain = 0
KLD1 011724Z 03009KT 06/M12 A3038 RMK A01 T00621116  RH  027%=      5-min Rain = 0
KLD1 011725Z 04008KT 06/M12 A3038 RMK A01 T00631117  RH  026%=      5-min Rain = 0
KLD1 011726Z 05008KT 06/M12 A3038 RMK A01 T00641116  RH  026%=      5-min Rain = 0
KLD1 011727Z 05008KT 07/M12 A3038 RMK A01 T00661116  RH  026%=      5-min Rain = 0
KLD1 011728Z 04008KT 07/M12 A3038 RMK A01 T00661116  RH  026%=      5-min Rain = 0
KLD1 011729Z 05007KT 06/M12 A3038 RMK A01 T00641119  RH  026%=      5-min Rain = 0
KLD1 011730Z 07005KT 06/M12 A3038 RMK A01 T00631119  RH  026%=      5-min Rain = 0
KLD1 011731Z 06004KT 06/M12 A3038 RMK A01 T00621119  RH  026%=      5-min Rain = 0
KLD1 011732Z 04007KT 06/M12 A3038 RMK A01 T00621118  RH  026%=      5-min Rain = 0
KLD1 011733Z 03006KT 06/M12 A3038 RMK A01 T00621118  RH  026%=      5-min Rain = 0
KLD1 011734Z 03006KT 06/M12 A3038 RMK A01 T00621118  RH  026%=      5-min Rain = 0
KLD1 011735Z 02008KT 06/M12 A3038 RMK A01 T00641118  RH  026%=      5-min Rain = 0
KLD1 011736Z 04007KT 06/M12 A3038 RMK A01 T00631120  RH  026%=      5-min Rain = 0
KLD1 011737Z 08006KT 06/M12 A3038 RMK A01 T00621120  RH  026%=      5-min Rain = 0
KLD1 011738Z 09005KT 06/M12 A3038 RMK A01 T00631120  RH  026%=      5-min Rain = 0
KLD1 011739Z 07005KT 06/M12 A3038 RMK A01 T00631118  RH  026%=      5-min Rain = 0
KLD1 011740Z 06005KT 07/M11 A3038 RMK A01 T00661114  RH  026%=      5-min Rain = 0
KLD1 011741Z 02007KT 07/M12 A3038 RMK A01 T00671117  RH  026%=      5-min Rain = 0
KLD1 011742Z 02008KT 07/M12 A3038 RMK A01 T00661119  RH  025%=      5-min Rain = 0
KLD1 011743Z 04010KT 07/M12 A3038 RMK A01 T00671116  RH  026%=      5-min Rain = 0
KLD1 011744Z 05009KT 07/M12 A3038 RMK A01 T00681117  RH  025%=      5-min Rain = 0
KLD1 011745Z 06009KT 07/M12 A3038 RMK A01 T00691116  RH  025%=      5-min Rain = 0
KLD1 011746Z 04007KT 07/M12 A3038 RMK A01 T00681117  RH  025%=      5-min Rain = 0
KLD1 011747Z 05004KT 07/M12 A3038 RMK A01 T00671118  RH  025%=      5-min Rain = 0
KLD1 011748Z 03006KT 07/M12 A3038 RMK A01 T00671117  RH  026%=      5-min Rain = 0
KLD1 011749Z 03005KT 07/M12 A3038 RMK A01 T00671118  RH  025%=      5-min Rain = 0
KLD1 011750Z 01005KT 07/M12 A3038 RMK A01 T00661117  RH  026%=      5-min Rain = 0
KLD1 011751Z 01006KT 07/M12 A3038 RMK A01 T00671116  RH  026%=      5-min Rain = 0
KLD1 011752Z 02007KT 07/M12 A3038 RMK A01 T00671116  RH  026%=      5-min Rain = 0
KLD1 011753Z 04009G14KT 07/M12 A3038 RMK A01 T00681115  RH  026%=      5-min Rain = 0
KLD1 011754Z 03010KT 07/M11 A3038 RMK A01 T00721113  RH  025%=      5-min Rain = 0
KLD1 011755Z 03008KT 07/M12 A3038 RMK A01 T00721117  RH  025%=      5-min Rain = 0
KLD1 011756Z 03006KT 07/M12 A3038 RMK A01 T00701119  RH  025%=      5-min Rain = 0
KLD1 011757Z 02006KT 07/M12 A3038 RMK A01 T00691120  RH  025%=      5-min Rain = 0
KLD1 011758Z 02006KT 07/M12 A3038 RMK A01 T00671119  RH  025%=      5-min Rain = 0
KLD1 011759Z 03007KT 07/M12 A3038 RMK A01 T00671118  RH  025%=      5-min Rain = 0
KLD1 011800Z 04004KT 07/M12 A3038 RMK A01 T00661119  RH  025%=      5-min Rain = 0
KLD1 011801Z 05003KT 07/M12 A3038 RMK A01 T00661121  RH  025%=      5-min Rain = 0
KLD1 011802Z 03005KT 07/M12 A3038 RMK A01 T00671118  RH  025%=      5-min Rain = 0
KLD1 011803Z 03007KT 07/M12 A3038 RMK A01 T00701117  RH  025%=      5-min Rain = 0
KLD1 011804Z 04007KT 07/M12 A3038 RMK A01 T00701119  RH  025%=      5-min Rain = 0
KLD1 011805Z 03006KT 07/M12 A3038 RMK A01 T00701120  RH  024%=      5-min Rain = 0
KLD1 011806Z 03007KT 07/M12 A3038 RMK A01 T00691119  RH  025%=      5-min Rain = 0
KLD1 011807Z 02009KT 07/M12 A3038 RMK A01 T00701116  RH  025%=      5-min Rain = 0
KLD1 011808Z 03009KT 07/M12 A3038 RMK A01 T00701115  RH  025%=      5-min Rain = 0
KLD1 011809Z 04008KT 07/M12 A3038 RMK A01 T00691116  RH  025%=      5-min Rain = 0
KLD1 011810Z 03006KT 07/M12 A3038 RMK A01 T00691116  RH  025%=      5-min Rain = 0
KLD1 011811Z 01006KT 07/M12 A3038 RMK A01 T00691117  RH  025%=      5-min Rain = 0
KLD1 011812Z 01006KT 07/M12 A3038 RMK A01 T00681117  RH  025%=      5-min Rain = 0
KLD1 011813Z 02006KT 07/M12 A3038 RMK A01 T00691115  RH  026%=      5-min Rain = 0
KLD1 011814Z 01004KT 07/M11 A3038 RMK A01 T00691114  RH  026%=      5-min Rain = 0
KLD1 011815Z 03005KT 07/M12 A3038 RMK A01 T00691115  RH  026%=      5-min Rain = 0
KLD1 011816Z 03004KT 07/M12 A3038 RMK A01 T00691115  RH  026%=      5-min Rain = 0
KLD1 011817Z 04002KT 07/M12 A3038 RMK A01 T00681116  RH  026%=      5-min Rain = 0
KLD1 011818Z 00004G10KT 07/M11 A3038 RMK A01 T00681114  RH  026%=      5-min Rain = 0
KLD1 011819Z 34008KT 07/M11 A3038 RMK A01 T00701111  RH  026%=      5-min Rain = 0
KLD1 011820Z 34007KT 07/M11 A3038 RMK A01 T00721112  RH  026%=      5-min Rain = 0
KLD1 011821Z 33008KT 07/M11 A3038 RMK A01 T00711112  RH  026%=      5-min Rain = 0
KLD1 011822Z 33007KT 07/M11 A3038 RMK A01 T00721112  RH  026%=      5-min Rain = 0
KLD1 011823Z 33006KT 07/M11 A3038 RMK A01 T00731112  RH  026%=      5-min Rain = 0
KLD1 011824Z 35006KT 07/M11 A3038 RMK A01 T00721111  RH  026%=      5-min Rain = 0
KLD1 011825Z 34006KT 07/M11 A3038 RMK A01 T00731111  RH  026%=      5-min Rain = 0
KLD1 011826Z 00006KT 07/M11 A3038 RMK A01 T00721112  RH  026%=      5-min Rain = 0
KLD1 011827Z 03006KT 07/M11 A3038 RMK A01 T00731112  RH  026%=      5-min Rain = 0
KLD1 011828Z 03007KT 08/M11 A3038 RMK A01 T00751112  RH  025%=      5-min Rain = 0
KLD1 011829Z 01009KT 08/M11 A3038 RMK A01 T00761112  RH  025%=      5-min Rain = 0
KLD1 011830Z 00010KT 08/M11 A3038 RMK A01 T00791110  RH  025%=      5-min Rain = 0
KLD1 011831Z 35008KT 08/M11 A3038 RMK A01 T00801111  RH  025%=      5-min Rain = 0
KLD1 011832Z 00007KT 08/M11 A3038 RMK A01 T00781113  RH  024%=      5-min Rain = 0
KLD1 011833Z 02005KT 08/M11 A3038 RMK A01 T00761113  RH  025%=      5-min Rain = 0
KLD1 011834Z 34006KT 08/M11 A3038 RMK A01 T00771111  RH  025%=      5-min Rain = 0
KLD1 011835Z 36007KT 08/M11 A3038 RMK A01 T00761114  RH  025%=      5-min Rain = 0
KLD1 011836Z 01006KT 08/M11 A3038 RMK A01 T00751113  RH  025%=      5-min Rain = 0
KLD1 011837Z 05007KT 08/M11 A3038 RMK A01 T00771113  RH  025%=      5-min Rain = 0
KLD1 011838Z 05006KT 08/M12 A3038 RMK A01 T00761115  RH  024%=      5-min Rain = 0
KLD1 011839Z 03006KT 08/M11 A3038 RMK A01 T00751114  RH  025%=      5-min Rain = 0
KLD1 011840Z 06004G10KT 08/M12 A3038 RMK A01 T00751116  RH  024%=      5-min Rain = 0
KLD1 011841Z 09006KT 08/M12 A3038 RMK A01 T00751115  RH  025%=      5-min Rain = 0
KLD1 011842Z 10006KT 08/M12 A3038 RMK A01 T00761115  RH  024%=      5-min Rain = 0
KLD1 011843Z 10006KT 08/M12 A3038 RMK A01 T00751116  RH  024%=      5-min Rain = 0
KLD1 011844Z 08005KT 08/M12 A3038 RMK A01 T00761115  RH  024%=      5-min Rain = 0
KLD1 011845Z 08006KT 08/M11 A3038 RMK A01 T00781114  RH  024%=      5-min Rain = 0
KLD1 011846Z 06008KT 08/M12 A3038 RMK A01 T00781115  RH  024%=      5-min Rain = 0
KLD1 011847Z 04007KT 08/M12 A3038 RMK A01 T00791116  RH  024%=      5-min Rain = 0
KLD1 011848Z 04008KT 08/M12 A3038 RMK A01 T00801117  RH  023%=      5-min Rain = 0
KLD1 011849Z 04005KT 08/M12 A3038 RMK A01 T00771120  RH  023%=      5-min Rain = 0
KLD1 011850Z 05006KT 08/M12 A3038 RMK A01 T00751120  RH  023%=      5-min Rain = 0
KLD1 011851Z 06008KT 07/M12 A3038 RMK A01 T00741123  RH  023%=      5-min Rain = 0
KLD1 011852Z 05006KT 07/M12 A3038 RMK A01 T00731122  RH  023%=      5-min Rain = 0
KLD1 011853Z 02005KT 07/M12 A3038 RMK A01 T00731121  RH  024%=      5-min Rain = 0
KLD1 011854Z 01002KT 07/M12 A3038 RMK A01 T00731122  RH  023%=      5-min Rain = 0
KLD1 011855Z 36002KT 07/M12 A3038 RMK A01 T00721123  RH  024%=      5-min Rain = 0
KLD1 011856Z 00001KT 07/M12 A3038 RMK A01 T00731122  RH  024%=      5-min Rain = 0
KLD1 011857Z 02004G9KT 07/M12 A3038 RMK A01 T00731122  RH  024%=      5-min Rain = 0
KLD1 011858Z 03008KT 08/M12 A3038 RMK A01 T00751120  RH  024%=      5-min Rain = 0
KLD1 011859Z 03008KT 08/M12 A3038 RMK A01 T00771121  RH  023%=      5-min Rain = 0
KLD1 011900Z 03011KT 08/M12 A3038 RMK A01 T00781123  RH  023%=      5-min Rain = 0
KLD1 011901Z 02010KT 08/M13 A3038 RMK A01 T00781128  RH  022%=      5-min Rain = 0
KLD1 011902Z 01007KT 08/M13 A3038 RMK A01 T00751131  RH  022%=      5-min Rain = 0
KLD1 011903Z 01004KT 07/M13 A3038 RMK A01 T00731132  RH  022%=      5-min Rain = 0
KLD1 011904Z 02005G10KT 07/M13 A3038 RMK A01 T00741129  RH  022%=      5-min Rain = 0
KLD1 011905Z 05009KT 08/M13 A3038 RMK A01 T00771125  RH  022%=      5-min Rain = 0
KLD1 011906Z 05006KT 08/M13 A3038 RMK A01 T00771125  RH  022%=      5-min Rain = 0
KLD1 011907Z 05005KT 08/M13 A3038 RMK A01 T00761126  RH  022%=      5-min Rain = 0
KLD1 011908Z 05005KT 08/M13 A3038 RMK A01 T00761125  RH  022%=      5-min Rain = 0
KLD1 011909Z 05005KT 08/M12 A3038 RMK A01 T00761124  RH  023%=      5-min Rain = 0
KLD1 011910Z 06005KT 08/M13 A3037 RMK A01 T00771125  RH  022%=      5-min Rain = 0
KLD1 011911Z 04006KT 08/M13 A3037 RMK A01 T00761129  RH  022%=      5-min Rain = 0
KLD1 011912Z 05010KT 08/M13 A3037 RMK A01 T00771128  RH  022%=      5-min Rain = 0
KLD1 011913Z 05010KT 08/M13 A3037 RMK A01 T00791126  RH  022%=      5-min Rain = 0
KLD1 011914Z 06009KT 08/M13 A3037 RMK A01 T00791129  RH  021%=      5-min Rain = 0
KLD1 011915Z 07007KT 08/M13 A3037 RMK A01 T00771130  RH  021%=      5-min Rain = 0
KLD1 011916Z 04009KT 08/M13 A3037 RMK A01 T00761130  RH  022%=      5-min Rain = 0
KLD1 011917Z 04011KT 08/M13 A3037 RMK A01 T00781129  RH  022%=      5-min Rain = 0
KLD1 011918Z 02012KT 08/M13 A3037 RMK A01 T00821129  RH  021%=      5-min Rain = 0
KLD1 011919Z 04014KT 09/M13 A3037 RMK A01 T00851131  RH  020%=      5-min Rain = 0
KLD1 011920Z 04014KT 08/M14 A3037 RMK A01 T00821135  RH  020%=      5-min Rain = 0
KLD1 011921Z 03013KT 08/M13 A3037 RMK A01 T00811134  RH  020%=      5-min Rain = 0
KLD1 011922Z 03012KT 08/M14 A3037 RMK A01 T00791136  RH  020%=      5-min Rain = 0
KLD1 011923Z 03009KT 08/M14 A3037 RMK A01 T00801135  RH  020%=      5-min Rain = 0
KLD1 011924Z 02011KT 08/M14 A3037 RMK A01 T00781135  RH  020%=      5-min Rain = 0
KLD1 011925Z 02008KT 08/M13 A3037 RMK A01 T00771134  RH  021%=      5-min Rain = 0
KLD1 011926Z 01006KT 08/M13 A3037 RMK A01 T00761133  RH  021%=      5-min Rain = 0
KLD1 011927Z 01010KT 08/M13 A3037 RMK A01 T00771131  RH  021%=      5-min Rain = 0
KLD1 011928Z 01009KT 08/M13 A3037 RMK A01 T00781130  RH  021%=      5-min Rain = 0
KLD1 011929Z 00007KT 08/M13 A3037 RMK A01 T00791130  RH  021%=      5-min Rain = 0
KLD1 011930Z 01009KT 08/M13 A3037 RMK A01 T00791130  RH  021%=      5-min Rain = 0
KLD1 011931Z 04007KT 08/M13 A3037 RMK A01 T00801129  RH  021%=      5-min Rain = 0
KLD1 011932Z 05009KT 08/M13 A3037 RMK A01 T00831130  RH  021%=      5-min Rain = 0
KLD1 011933Z 05012KT 08/M13 A3037 RMK A01 T00811134  RH  020%=      5-min Rain = 0
KLD1 011934Z 06010KT 08/M13 A3037 RMK A01 T00811134  RH  020%=      5-min Rain = 0
KLD1 011935Z 05011KT 08/M13 A3037 RMK A01 T00801134  RH  020%=      5-min Rain = 0
KLD1 011936Z 05010KT 08/M13 A3037 RMK A01 T00821130  RH  021%=      5-min Rain = 0
KLD1 011937Z 05011KT 09/M13 A3037 RMK A01 T00871127  RH  021%=      5-min Rain = 0
KLD1 011938Z 05009KT 09/M13 A3037 RMK A01 T00871129  RH  020%=      5-min Rain = 0
KLD1 011939Z 03009KT 09/M13 A3037 RMK A01 T00871129  RH  020%=      5-min Rain = 0
KLD1 011940Z 01007KT 09/M13 A3037 RMK A01 T00861132  RH  020%=      5-min Rain = 0
KLD1 011941Z 03007KT 08/M13 A3037 RMK A01 T00841132  RH  020%=      5-min Rain = 0
KLD1 011942Z 03006KT 08/M13 A3037 RMK A01 T00831132  RH  020%=      5-min Rain = 0
KLD1 011943Z 06007KT 08/M13 A3036 RMK A01 T00821129  RH  021%=      5-min Rain = 0
KLD1 011944Z 06008KT 08/M13 A3036 RMK A01 T00841129  RH  021%=      5-min Rain = 0
KLD1 011945Z 05008KT 08/M13 A3036 RMK A01 T00841128  RH  021%=      5-min Rain = 0
KLD1 011946Z 04012KT 09/M13 A3036 RMK A01 T00871128  RH  020%=      5-min Rain = 0
KLD1 011947Z 02013KT 09/M13 A3036 RMK A01 T00871133  RH  020%=      5-min Rain = 0
KLD1 011948Z 01011KT 09/M14 A3036 RMK A01 T00861138  RH  019%=      5-min Rain = 0
KLD1 011949Z 02007KT 08/M14 A3036 RMK A01 T00831140  RH  019%=      5-min Rain = 0
KLD1 011950Z 00007KT 08/M14 A3036 RMK A01 T00831140  RH  019%=      5-min Rain = 0
KLD1 011951Z 02012KT 08/M14 A3036 RMK A01 T00821139  RH  019%=      5-min Rain = 0
KLD1 011952Z 03012KT 08/M14 A3036 RMK A01 T00841140  RH  019%=      5-min Rain = 0
KLD1 011953Z 03010KT 08/M14 A3036 RMK A01 T00841142  RH  019%=      5-min Rain = 0
KLD1 011954Z 02009KT 08/M14 A3036 RMK A01 T00841141  RH  019%=      5-min Rain = 0
KLD1 011955Z 01010KT 08/M14 A3036 RMK A01 T00831143  RH  019%=      5-min Rain = 0
KLD1 011956Z 03010KT 08/M14 A3036 RMK A01 T00821142  RH  019%=      5-min Rain = 0
KLD1 011957Z 06013KT 08/M14 A3036 RMK A01 T00831141  RH  019%=      5-min Rain = 0
KLD1 011958Z 07008KT 08/M14 A3036 RMK A01 T00831142  RH  019%=      5-min Rain = 0
KLD1 011959Z 07009KT 08/M14 A3036 RMK A01 T00811142  RH  019%=      5-min Rain = 0
KLD1 012000Z 07008KT 08/M14 A3036 RMK A01 T00811144  RH  019%=      5-min Rain = 0
KLD1 012001Z 05007KT 08/M15 A3036 RMK A01 T00801146  RH  018%=      5-min Rain = 0
KLD1 012002Z 05011KT 08/M14 A3036 RMK A01 T00811144  RH  019%=      5-min Rain = 0
KLD1 012003Z 04012KT 08/M14 A3035 RMK A01 T00841142  RH  019%=      5-min Rain = 0
KLD1 012004Z 03011KT 09/M14 A3036 RMK A01 T00861140  RH  019%=      5-min Rain = 0
KLD1 012005Z 02011KT 09/M14 A3036 RMK A01 T00891140  RH  018%=      5-min Rain = 0
KLD1 012006Z 01009KT 09/M14 A3035 RMK A01 T00871142  RH  018%=      5-min Rain = 0
KLD1 012007Z 01012KT 09/M14 A3035 RMK A01 T00861142  RH  018%=      5-min Rain = 0
KLD1 012008Z 00009KT 09/M14 A3035 RMK A01 T00851142  RH  018%=      5-min Rain = 0
KLD1 012009Z 00008KT 08/M14 A3035 RMK A01 T00841144  RH  018%=      5-min Rain = 0
KLD1 012010Z 05007KT 08/M14 A3035 RMK A01 T00831144  RH  018%=      5-min Rain = 0
KLD1 012011Z 07005KT 08/M15 A3035 RMK A01 T00831145  RH  018%=      5-min Rain = 0
KLD1 012012Z 06005G10KT 08/M14 A3035 RMK A01 T00821144  RH  018%=      5-min Rain = 0
KLD1 012013Z 02012KT 09/M14 A3035 RMK A01 T00851140  RH  019%=      5-min Rain = 0
KLD1 012014Z 02009KT 09/M14 A3035 RMK A01 T00901138  RH  018%=      5-min Rain = 0
KLD1 012015Z 02011KT 09/M14 A3035 RMK A01 T00911141  RH  018%=      5-min Rain = 0
KLD1 012016Z 02011KT 09/M14 A3035 RMK A01 T00891144  RH  018%=      5-min Rain = 0
KLD1 012017Z 04013KT 09/M14 A3035 RMK A01 T00881144  RH  018%=      5-min Rain = 0
KLD1 012018Z 05010KT 09/M15 A3035 RMK A01 T00881145  RH  018%=      5-min Rain = 0
KLD1 012019Z 05011KT 09/M15 A3035 RMK A01 T00871145  RH  018%=      5-min Rain = 0
KLD1 012020Z 05009KT 09/M14 A3035 RMK A01 T00871144  RH  018%=      5-min Rain = 0
KLD1 012021Z 04009KT 09/M14 A3035 RMK A01 T00891142  RH  018%=      5-min Rain = 0
KLD1 012022Z 04010KT 09/M14 A3035 RMK A01 T00891143  RH  018%=      5-min Rain = 0
KLD1 012023Z 03009KT 09/M15 A3035 RMK A01 T00881146  RH  017%=      5-min Rain = 0
KLD1 012024Z 05006KT 09/M15 A3035 RMK A01 T00881146  RH  017%=      5-min Rain = 0
KLD1 012025Z 05006KT 09/M15 A3035 RMK A01 T00871146  RH  017%=      5-min Rain = 0
KLD1 012026Z 05005KT 09/M15 A3035 RMK A01 T00861147  RH  018%=      5-min Rain = 0
KLD1 012027Z 04007KT 09/M14 A3035 RMK A01 T00871144  RH  018%=      5-min Rain = 0
KLD1 012028Z 02007KT 09/M15 A3034 RMK A01 T00881145  RH  018%=      5-min Rain = 0
KLD1 012029Z 03010KT 09/M14 A3034 RMK A01 T00901144  RH  017%=      5-min Rain = 0
KLD1 012030Z 02013KT 09/M15 A3034 RMK A01 T00931149  RH  016%=      5-min Rain = 0
KLD1 012031Z 02009G14KT 09/M16 A3034 RMK A01 T00921155  RH  016%=      5-min Rain = 0
KLD1 012032Z 01008KT 09/M16 A3034 RMK A01 T00891156  RH  016%=      5-min Rain = 0
KLD1 012033Z 01007G13KT 09/M15 A3034 RMK A01 T00911152  RH  016%=      5-min Rain = 0
KLD1 012034Z 05008KT 09/M15 A3034 RMK A01 T00921152  RH  016%=      5-min Rain = 0
KLD1 012035Z 06008KT 09/M15 A3034 RMK A01 T00931153  RH  016%=      5-min Rain = 0
KLD1 012036Z 04008KT 09/M16 A3034 RMK A01 T00921155  RH  016%=      5-min Rain = 0
KLD1 012037Z 02009KT 09/M15 A3034 RMK A01 T00911154  RH  016%=      5-min Rain = 0
KLD1 012038Z 03008KT 09/M16 A3034 RMK A01 T00891158  RH  016%=      5-min Rain = 0
KLD1 012039Z 06012G20KT 09/M16 A3034 RMK A01 T00891157  RH  016%=      5-min Rain = 0
KLD1 012040Z 04015KT 09/M15 A3034 RMK A01 T00931154  RH  016%=      5-min Rain = 0
KLD1 012041Z 05013KT 10/M16 A3034 RMK A01 T00951158  RH  015%=      5-min Rain = 0
KLD1 012042Z 05010KT 10/M16 A3034 RMK A01 T00951161  RH  015%=      5-min Rain = 0
KLD1 012043Z 05012G17KT 10/M16 A3034 RMK A01 T00981158  RH  015%=      5-min Rain = 0
KLD1 012044Z 03012KT 10/M16 A3034 RMK A01 T00971164  RH  014%=      5-min Rain = 0
KLD1 012045Z 02009G14KT 10/M17 A3034 RMK A01 T00951166  RH  014%=      5-min Rain = 0
KLD1 012046Z 02007KT 09/M17 A3034 RMK A01 T00931167  RH  014%=      5-min Rain = 0
KLD1 012047Z 02012G18KT 09/M17 A3034 RMK A01 T00941165  RH  014%=      5-min Rain = 0
KLD1 012048Z 04015G20KT 10/M16 A3034 RMK A01 T00951164  RH  014%=      5-min Rain = 0
KLD1 012049Z 05013KT 10/M17 A3034 RMK A01 T00951165  RH  014%=      5-min Rain = 0
KLD1 012050Z 05013KT 10/M17 A3034 RMK A01 T00961165  RH  014%=      5-min Rain = 0
KLD1 012051Z 06014KT 10/M17 A3034 RMK A01 T00961167  RH  014%=      5-min Rain = 0
KLD1 012052Z 05013KT 10/M17 A3034 RMK A01 T00951169  RH  014%=      5-min Rain = 0
KLD1 012053Z 05012KT 09/M17 A3034 RMK A01 T00941169  RH  014%=      5-min Rain = 0
KLD1 012054Z 06011KT 10/M17 A3034 RMK A01 T00951167  RH  014%=      5-min Rain = 0
KLD1 012055Z 07012KT 10/M17 A3034 RMK A01 T00971166  RH  014%=      5-min Rain = 0
KLD1 012056Z 06014KT 10/M17 A3033 RMK A01 T00981166  RH  014%=      5-min Rain = 0
KLD1 012057Z 06012KT 10/M17 A3034 RMK A01 T00981170  RH  013%=      5-min Rain = 0
KLD1 012058Z 06011KT 10/M17 A3034 RMK A01 T00981170  RH  013%=      5-min Rain = 0
KLD1 012059Z 06012KT 10/M17 A3033 RMK A01 T00971171  RH  013%=      5-min Rain = 0
KLD1 012100Z 07013KT 10/M17 A3033 RMK A01 T00981169  RH  013%=      5-min Rain = 0
KLD1 012101Z 07013KT 10/M17 A3033 RMK A01 T00981171  RH  013%=      5-min Rain = 0
KLD1 012102Z 07012KT 10/M17 A3033 RMK A01 T00981168  RH  014%=      5-min Rain = 0
KLD1 012103Z 07011KT 10/M17 A3033 RMK A01 T00951173  RH  013%=      5-min Rain = 0
KLD1 012104Z 04012KT 10/M16 A3033 RMK A01 T00991163  RH  014%=      5-min Rain = 0
KLD1 012105Z 03010KT 10/M16 A3034 RMK A01 T01021161  RH  014%=      5-min Rain = 0
KLD1 012106Z 05011G16KT 10/M16 A3033 RMK A01 T01031162  RH  014%=      5-min Rain = 0
KLD1 012107Z 06013KT 11/M16 A3033 RMK A01 T01071163  RH  013%=      5-min Rain = 0
KLD1 012108Z 07013KT 10/M17 A3033 RMK A01 T01031174  RH  013%=      5-min Rain = 0
KLD1 012109Z 06010KT 10/M18 A3033 RMK A01 T00981180  RH  012%=      5-min Rain = 0
KLD1 012110Z 06013G18KT 10/M18 A3033 RMK A01 T00961178  RH  013%=      5-min Rain = 0
KLD1 012111Z 07011KT 10/M18 A3034 RMK A01 T00961176  RH  013%=      5-min Rain = 0
KLD1 012112Z 08010KT 10/M18 A3034 RMK A01 T00961175  RH  013%=      5-min Rain = 0
KLD1 012113Z 10006KT 10/M18 A3034 RMK A01 T00951176  RH  013%=      5-min Rain = 0
KLD1 012114Z 06006KT 09/M18 A3034 RMK A01 T00931177  RH  013%=      5-min Rain = 0
KLD1 012115Z 06012KT 09/M17 A3033 RMK A01 T00931174  RH  013%=      5-min Rain = 0
KLD1 012116Z 06011KT 10/M17 A3033 RMK A01 T00951171  RH  014%=      5-min Rain = 0
KLD1 012117Z 05010KT 09/M17 A3033 RMK A01 T00941173  RH  013%=      5-min Rain = 0
KLD1 012118Z 05012KT 09/M17 A3033 RMK A01 T00931173  RH  013%=      5-min Rain = 0
KLD1 012119Z 04010KT 10/M17 A3033 RMK A01 T00951169  RH  014%=      5-min Rain = 0
KLD1 012120Z 06009KT 10/M17 A3033 RMK A01 T00971168  RH  014%=      5-min Rain = 0
KLD1 012121Z 07012G17KT 09/M17 A3033 RMK A01 T00941172  RH  014%=      5-min Rain = 0
KLD1 012122Z 05015KT 09/M17 A3033 RMK A01 T00931170  RH  014%=      5-min Rain = 0
KLD1 012123Z 03018KT 09/M17 A3033 RMK A01 T00941167  RH  014%=      5-min Rain = 0
KLD1 012124Z 03014KT 10/M17 A3033 RMK A01 T00951167  RH  014%=      5-min Rain = 0
KLD1 012125Z 04015KT 10/M17 A3033 RMK A01 T00951167  RH  014%=      5-min Rain = 0
KLD1 012126Z 04013KT 10/M17 A3033 RMK A01 T00961166  RH  014%=      5-min Rain = 0
KLD1 012127Z 04010KT 10/M17 A3034 RMK A01 T00951168  RH  014%=      5-min Rain = 0
KLD1 012128Z 04012KT 09/M17 A3033 RMK A01 T00941167  RH  014%=      5-min Rain = 0
KLD1 012129Z 06012KT 10/M16 A3033 RMK A01 T00961164  RH  014%=      5-min Rain = 0
KLD1 012130Z 06013KT 10/M17 A3033 RMK A01 T00971165  RH  014%=      5-min Rain = 0
KLD1 012131Z 05011KT 09/M17 A3034 RMK A01 T00941169  RH  014%=      5-min Rain = 0
KLD1 012132Z 06008KT 09/M17 A3033 RMK A01 T00921168  RH  014%=      5-min Rain = 0
KLD1 012133Z 05008KT 09/M17 A3033 RMK A01 T00921167  RH  014%=      5-min Rain = 0
KLD1 012134Z 05007KT 09/M17 A3033 RMK A01 T00911168  RH  014%=      5-min Rain = 0
KLD1 012135Z 02012KT 09/M17 A3033 RMK A01 T00911167  RH  014%=      5-min Rain = 0
KLD1 012136Z 03011KT 09/M17 A3033 RMK A01 T00931166  RH  014%=      5-min Rain = 0
KLD1 012137Z 02011KT 09/M17 A3033 RMK A01 T00931167  RH  014%=      5-min Rain = 0
KLD1 012138Z 05010KT 09/M17 A3033 RMK A01 T00941167  RH  014%=      5-min Rain = 0
KLD1 012139Z 04011KT 10/M16 A3033 RMK A01 T00961162  RH  014%=      5-min Rain = 0
KLD1 012140Z 05009KT 10/M16 A3033 RMK A01 T00971164  RH  014%=      5-min Rain = 0
KLD1 012141Z 07009KT 10/M16 A3033 RMK A01 T00981162  RH  014%=      5-min Rain = 0
KLD1 012142Z 07006KT 10/M17 A3033 RMK A01 T00981165  RH  014%=      5-min Rain = 0
KLD1 012143Z 06006KT 10/M17 A3033 RMK A01 T00951167  RH  014%=      5-min Rain = 0
KLD1 012144Z 08005KT 09/M17 A3033 RMK A01 T00941166  RH  014%=      5-min Rain = 0
KLD1 012145Z 08005G10KT 10/M16 A3033 RMK A01 T00951164  RH  014%=      5-min Rain = 0
KLD1 012146Z 09007KT 10/M17 A3033 RMK A01 T00961167  RH  014%=      5-min Rain = 0
KLD1 012147Z 09009KT 10/M17 A3033 RMK A01 T00961171  RH  013%=      5-min Rain = 0
KLD1 012148Z 11006KT 10/M17 A3033 RMK A01 T00951171  RH  014%=      5-min Rain = 0
KLD1 012149Z 10005KT 10/M17 A3034 RMK A01 T00951171  RH  014%=      5-min Rain = 0
KLD1 012150Z 08008G14KT 09/M17 A3034 RMK A01 T00941171  RH  014%=      5-min Rain = 0
KLD1 012151Z 06012KT 10/M17 A3033 RMK A01 T00951165  RH  014%=      5-min Rain = 0
KLD1 012152Z 06013KT 10/M16 A3033 RMK A01 T00971163  RH  014%=      5-min Rain = 0
KLD1 012153Z 06014KT 10/M16 A3033 RMK A01 T00971163  RH  014%=      5-min Rain = 0
KLD1 012154Z 06012KT 10/M16 A3033 RMK A01 T00971164  RH  014%=      5-min Rain = 0
KLD1 012155Z 06013KT 10/M16 A3033 RMK A01 T00961164  RH  014%=      5-min Rain = 0
KLD1 012156Z 05014KT 10/M16 A3033 RMK A01 T00961164  RH  014%=      5-min Rain = 0
KLD1 012157Z 05011KT 10/M16 A3033 RMK A01 T00971164  RH  014%=      5-min Rain = 0
KLD1 012158Z 05009KT 10/M17 A3033 RMK A01 T00951166  RH  014%=      5-min Rain = 0
KLD1 012159Z 06010KT 09/M17 A3033 RMK A01 T00941166  RH  014%=      5-min Rain = 0
KLD1 012200Z 06013G19KT 10/M16 A3033 RMK A01 T00961162  RH  014%=      5-min Rain = 0
KLD1 012201Z 03014KT 10/M16 A3033 RMK A01 T01001158  RH  015%=      5-min Rain = 0
KLD1 012202Z 01010KT 10/M16 A3034 RMK A01 T01001159  RH  014%=      5-min Rain = 0
KLD1 012203Z 01012KT 10/M16 A3033 RMK A01 T00991160  RH  014%=      5-min Rain = 0
KLD1 012204Z 00013KT 10/M16 A3034 RMK A01 T01001157  RH  015%=      5-min Rain = 0
KLD1 012205Z 01009G14KT 10/M16 A3034 RMK A01 T01011157  RH  015%=      5-min Rain = 0
KLD1 012206Z 02010KT 10/M16 A3033 RMK A01 T01001159  RH  014%=      5-min Rain = 0
KLD1 012207Z 01009KT 10/M16 A3033 RMK A01 T00971161  RH  015%=      5-min Rain = 0
KLD1 012208Z 36008KT 10/M16 A3033 RMK A01 T00971160  RH  015%=      5-min Rain = 0
KLD1 012209Z 35007KT 10/M16 A3033 RMK A01 T00961160  RH  015%=      5-min Rain = 0
KLD1 012210Z 35005KT 10/M16 A3033 RMK A01 T00961160  RH  015%=      5-min Rain = 0
KLD1 012211Z 01006KT 10/M16 A3033 RMK A01 T00951160  RH  015%=      5-min Rain = 0
KLD1 012212Z 03005KT 10/M16 A3033 RMK A01 T00951159  RH  015%=      5-min Rain = 0
KLD1 012213Z 04010KT 10/M16 A3033 RMK A01 T00961157  RH  015%=      5-min Rain = 0
KLD1 012214Z 04010KT 10/M16 A3033 RMK A01 T00991155  RH  015%=      5-min Rain = 0
KLD1 012215Z 03007KT 10/M16 A3033 RMK A01 T00991155  RH  015%=      5-min Rain = 0
KLD1 012216Z 04008KT 10/M16 A3033 RMK A01 T01001157  RH  015%=      5-min Rain = 0
KLD1 012217Z 04005KT 10/M16 A3033 RMK A01 T00991157  RH  015%=      5-min Rain = 0
KLD1 012218Z 01004KT 10/M16 A3033 RMK A01 T00971158  RH  015%=      5-min Rain = 0
KLD1 012219Z 01002KT 10/M16 A3033 RMK A01 T00971157  RH  015%=      5-min Rain = 0
KLD1 012220Z 02004KT 10/M16 A3033 RMK A01 T00971157  RH  015%=      5-min Rain = 0
KLD1 012221Z 03007KT 10/M16 A3033 RMK A01 T00981155  RH  015%=      5-min Rain = 0
KLD1 012222Z 04008KT 10/M15 A3033 RMK A01 T01021151  RH  015%=      5-min Rain = 0
KLD1 012223Z 04010KT 10/M15 A3033 RMK A01 T01021153  RH  015%=      5-min Rain = 0
KLD1 012224Z 06011KT 10/M15 A3033 RMK A01 T01021153  RH  015%=      5-min Rain = 0
KLD1 012225Z 07010KT 10/M16 A3033 RMK A01 T01001156  RH  015%=      5-min Rain = 0
KLD1 012226Z 07011KT 10/M16 A3033 RMK A01 T00991155  RH  015%=      5-min Rain = 0
KLD1 012227Z 06009KT 10/M16 A3033 RMK A01 T01011155  RH  015%=      5-min Rain = 0
KLD1 012228Z 04008KT 10/M16 A3033 RMK A01 T01001157  RH  015%=      5-min Rain = 0
KLD1 012229Z 05006KT 10/M16 A3033 RMK A01 T00991156  RH  015%=      5-min Rain = 0
KLD1 012230Z 05007KT 10/M15 A3033 RMK A01 T01011154  RH  015%=      5-min Rain = 0
KLD1 012231Z 03010KT 10/M16 A3033 RMK A01 T01011155  RH  015%=      5-min Rain = 0
KLD1 012232Z 03008KT 10/M15 A3033 RMK A01 T01031150  RH  015%=      5-min Rain = 0
KLD1 012233Z 02007KT 11/M15 A3033 RMK A01 T01061147  RH  015%=      5-min Rain = 0
KLD1 012234Z 05009KT 11/M15 A3033 RMK A01 T01061147  RH  015%=      5-min Rain = 0
KLD1 012235Z 06007KT 11/M15 A3033 RMK A01 T01061150  RH  015%=      5-min Rain = 0
KLD1 012236Z 02008KT 10/M15 A3033 RMK A01 T01041150  RH  015%=      5-min Rain = 0
KLD1 012237Z 01008KT 10/M15 A3033 RMK A01 T01021152  RH  015%=      5-min Rain = 0
KLD1 012238Z 01010KT 10/M15 A3033 RMK A01 T01001151  RH  015%=      5-min Rain = 0
KLD1 012239Z 04010KT 10/M15 A3033 RMK A01 T01031148  RH  016%=      5-min Rain = 0
KLD1 012240Z 04009KT 10/M15 A3033 RMK A01 T01031150  RH  015%=      5-min Rain = 0
KLD1 012241Z 04008KT 10/M15 A3033 RMK A01 T01021151  RH  015%=      5-min Rain = 0
KLD1 012242Z 04009KT 10/M15 A3033 RMK A01 T01011151  RH  015%=      5-min Rain = 0
KLD1 012243Z 02010KT 10/M15 A3033 RMK A01 T01021150  RH  015%=      5-min Rain = 0
KLD1 012244Z 01009KT 10/M15 A3033 RMK A01 T01031150  RH  015%=      5-min Rain = 0
KLD1 012245Z 35008KT 10/M15 A3033 RMK A01 T01021152  RH  015%=      5-min Rain = 0
KLD1 012246Z 33008KT 10/M15 A3033 RMK A01 T01011153  RH  015%=      5-min Rain = 0
KLD1 012247Z 34007KT 10/M15 A3033 RMK A01 T01011152  RH  015%=      5-min Rain = 0
KLD1 012248Z 34007KT 10/M15 A3033 RMK A01 T01001152  RH  015%=      5-min Rain = 0
KLD1 012249Z 33005KT 10/M15 A3033 RMK A01 T01001152  RH  015%=      5-min Rain = 0
KLD1 012250Z 02006KT 10/M15 A3033 RMK A01 T01011150  RH  016%=      5-min Rain = 0
KLD1 012251Z 01006KT 10/M15 A3033 RMK A01 T01021149  RH  015%=      5-min Rain = 0
KLD1 012252Z 01006KT 10/M15 A3033 RMK A01 T01021151  RH  015%=      5-min Rain = 0
KLD1 012253Z 03005KT 10/M15 A3033 RMK A01 T01011149  RH  016%=      5-min Rain = 0
KLD1 012254Z 05007KT 10/M15 A3033 RMK A01 T01021148  RH  016%=      5-min Rain = 0
KLD1 012255Z 04007KT 10/M15 A3033 RMK A01 T01031148  RH  016%=      5-min Rain = 0
KLD1 012256Z 05006KT 10/M15 A3033 RMK A01 T01021148  RH  016%=      5-min Rain = 0
KLD1 012257Z 03006KT 10/M15 A3033 RMK A01 T01011148  RH  016%=      5-min Rain = 0
KLD1 012258Z 02008KT 10/M15 A3033 RMK A01 T01021146  RH  016%=      5-min Rain = 0
KLD1 012259Z 02009KT 10/M15 A3033 RMK A01 T01021146  RH  016%=      5-min Rain = 0
KLD1 012300Z 02008KT 10/M15 A3033 RMK A01 T01021146  RH  016%=      5-min Rain = 0
KLD1 012301Z 02007KT 10/M15 A3033 RMK A01 T01001148  RH  016%=      5-min Rain = 0
KLD1 012302Z 04005KT 10/M15 A3033 RMK A01 T00991148  RH  016%=      5-min Rain = 0
KLD1 012303Z 01006KT 10/M15 A3033 RMK A01 T00991147  RH  016%=      5-min Rain = 0
KLD1 012304Z 01003KT 10/M15 A3033 RMK A01 T00991148  RH  016%=      5-min Rain = 0
KLD1 012305Z 36004KT 10/M15 A3033 RMK A01 T00981149  RH  016%=      5-min Rain = 0
KLD1 012306Z 00004KT 10/M15 A3033 RMK A01 T00971149  RH  016%=      5-min Rain = 0
KLD1 012307Z 35003KT 10/M15 A3033 RMK A01 T00971148  RH  016%=      5-min Rain = 0
KLD1 012308Z 02004KT 10/M15 A3033 RMK A01 T00971148  RH  016%=      5-min Rain = 0
KLD1 012309Z 04008KT 10/M15 A3033 RMK A01 T00981147  RH  016%=      5-min Rain = 0
KLD1 012310Z 05006KT 10/M15 A3033 RMK A01 T00981148  RH  016%=      5-min Rain = 0
KLD1 012311Z 05005KT 10/M15 A3033 RMK A01 T00971149  RH  016%=      5-min Rain = 0
KLD1 012312Z 03010KT 10/M15 A3033 RMK A01 T00961149  RH  016%=      5-min Rain = 0
KLD1 012313Z 02011KT 10/M15 A3033 RMK A01 T00971148  RH  016%=      5-min Rain = 0
KLD1 012314Z 01007KT 10/M15 A3033 RMK A01 T00971150  RH  016%=      5-min Rain = 0
KLD1 012315Z 04006KT 10/M15 A3033 RMK A01 T00961150  RH  016%=      5-min Rain = 0
KLD1 012316Z 07005KT 10/M15 A3033 RMK A01 T00961150  RH  016%=      5-min Rain = 0
KLD1 012317Z 05005KT 10/M15 A3033 RMK A01 T00961150  RH  016%=      5-min Rain = 0
KLD1 012318Z 02006KT 10/M15 A3033 RMK A01 T00971149  RH  016%=      5-min Rain = 0
KLD1 012319Z 01007KT 10/M15 A3033 RMK A01 T00981149  RH  016%=      5-min Rain = 0
KLD1 012320Z 03007KT 10/M15 A3033 RMK A01 T00981151  RH  016%=      5-min Rain = 0
KLD1 012321Z 04009KT 10/M15 A3033 RMK A01 T00991152  RH  015%=      5-min Rain = 0
KLD1 012322Z 03010KT 10/M15 A3033 RMK A01 T00991153  RH  015%=      5-min Rain = 0
KLD1 012323Z 03009KT 10/M15 A3033 RMK A01 T00991154  RH  015%=      5-min Rain = 0
KLD1 012324Z 04007KT 10/M15 A3033 RMK A01 T00991153  RH  015%=      5-min Rain = 0
KLD1 012325Z 05008KT 10/M15 A3033 RMK A01 T00991153  RH  015%=      5-min Rain = 0
KLD1 012326Z 04009KT 10/M15 A3033 RMK A01 T00991153  RH  015%=      5-min Rain = 0
KLD1 012327Z 04010KT 10/M15 A3033 RMK A01 T00991153  RH  015%=      5-min Rain = 0
KLD1 012328Z 04009KT 10/M15 A3033 RMK A01 T00981154  RH  015%=      5-min Rain = 0
KLD1 012329Z 04009KT 10/M15 A3033 RMK A01 T00981154  RH  015%=      5-min Rain = 0
KLD1 012330Z 05007KT 10/M16 A3033 RMK A01 T00981156  RH  015%=      5-min Rain = 0
KLD1 012331Z 06007KT 10/M16 A3033 RMK A01 T00971156  RH  015%=      5-min Rain = 0
KLD1 012332Z 05009KT 10/M15 A3033 RMK A01 T00971153  RH  015%=      5-min Rain = 0
KLD1 012333Z 07011KT 10/M15 A3033 RMK A01 T00981151  RH  016%=      5-min Rain = 0
KLD1 012334Z 05010KT 10/M15 A3033 RMK A01 T00981151  RH  016%=      5-min Rain = 0
KLD1 012335Z 04008KT 10/M15 A3033 RMK A01 T00991151  RH  016%=      5-min Rain = 0
KLD1 012336Z 03012KT 10/M15 A3033 RMK A01 T00991153  RH  015%=      5-min Rain = 0
KLD1 012337Z 04010KT 10/M15 A3033 RMK A01 T00991154  RH  015%=      5-min Rain = 0
KLD1 012338Z 05010KT 10/M15 A3033 RMK A01 T01001154  RH  015%=      5-min Rain = 0
KLD1 012339Z 04009KT 10/M16 A3033 RMK A01 T00991156  RH  015%=      5-min Rain = 0
KLD1 012340Z 04009KT 10/M16 A3033 RMK A01 T00971158  RH  015%=      5-min Rain = 0
KLD1 012341Z 05008KT 10/M16 A3033 RMK A01 T00961158  RH  015%=      5-min Rain = 0
KLD1 012342Z 06009KT 10/M16 A3033 RMK A01 T00961155  RH  015%=      5-min Rain = 0
KLD1 012343Z 05009KT 10/M15 A3033 RMK A01 T00951152  RH  016%=      5-min Rain = 0
KLD1 012344Z 04009KT 10/M15 A3033 RMK A01 T00951151  RH  016%=      5-min Rain = 0
KLD1 012345Z 05010KT 10/M15 A3033 RMK A01 T00951149  RH  016%=      5-min Rain = 0
KLD1 012346Z 04010KT 10/M15 A3033 RMK A01 T00961152  RH  016%=      5-min Rain = 0
KLD1 012347Z 04009KT 10/M16 A3033 RMK A01 T00961155  RH  015%=      5-min Rain = 0
KLD1 012348Z 04009KT 10/M16 A3033 RMK A01 T00961155  RH  015%=      5-min Rain = 0
KLD1 012349Z 05007KT 10/M16 A3033 RMK A01 T00951157  RH  015%=      5-min Rain = 0
KLD1 012350Z 05007KT 09/M16 A3033 RMK A01 T00941156  RH  015%=      5-min Rain = 0
KLD1 012351Z 05007KT 09/M16 A3033 RMK A01 T00941155  RH  016%=      5-min Rain = 0
KLD1 012352Z 04011KT 09/M16 A3033 RMK A01 T00941155  RH  016%=      5-min Rain = 0
KLD1 012353Z 04012KT 09/M16 A3033 RMK A01 T00941155  RH  016%=      5-min Rain = 0
KLD1 012354Z 05011KT 10/M16 A3033 RMK A01 T00951155  RH  016%=      5-min Rain = 0
KLD1 012355Z 05011KT 10/M16 A3033 RMK A01 T00951155  RH  015%=      5-min Rain = 0
KLD1 012356Z 05010KT 09/M16 A3033 RMK A01 T00941156  RH  015%=      5-min Rain = 0
KLD1 012357Z 04010KT 09/M16 A3033 RMK A01 T00941156  RH  015%=      5-min Rain = 0
KLD1 012358Z 05008KT 09/M16 A3033 RMK A01 T00941156  RH  016%=      5-min Rain = 0
KLD1 012359Z 05010KT 09/M16 A3033 RMK A01 T00941155  RH  016%=      5-min Rain = 0
KLD1 020000Z 05009KT 09/M16 A3033 RMK A01 T00941156  RH  016%=      5-min Rain = 0
KLD1 020001Z 04010KT 09/M16 A3033 RMK A01 T00931156  RH  016%=      5-min Rain = 0
KLD1 020002Z 03009KT 09/M16 A3033 RMK A01 T00931156  RH  016%=      5-min Rain = 0
KLD1 020003Z 03008KT 09/M16 A3033 RMK A01 T00931157  RH  015%=      5-min Rain = 0
KLD1 020004Z 03007KT 09/M16 A3033 RMK A01 T00931157  RH  015%=      5-min Rain = 0
KLD1 020005Z 04006KT 09/M16 A3033 RMK A01 T00931156  RH  016%=      5-min Rain = 0
KLD1 020006Z 04006KT 09/M16 A3033 RMK A01 T00931156  RH  016%=      5-min Rain = 0
KLD1 020007Z 02007KT 09/M16 A3033 RMK A01 T00931156  RH  016%=      5-min Rain = 0
KLD1 020008Z 02008KT 09/M16 A3033 RMK A01 T00931156  RH  016%=      5-min Rain = 0
KLD1 020009Z 03007KT 09/M16 A3033 RMK A01 T00921156  RH  016%=      5-min Rain = 0
KLD1 020010Z 04008KT 09/M16 A3033 RMK A01 T00921155  RH  016%=      5-min Rain = 0
KLD1 020011Z 03008KT 09/M16 A3033 RMK A01 T00921155  RH  016%=      5-min Rain = 0
KLD1 020012Z 04008KT 09/M16 A3033 RMK A01 T00921155  RH  016%=      5-min Rain = 0
KLD1 020013Z 04008KT 09/M16 A3033 RMK A01 T00911155  RH  016%=      5-min Rain = 0
KLD1 020014Z 04008KT 09/M15 A3033 RMK A01 T00911154  RH  016%=      5-min Rain = 0
KLD1 020015Z 04009KT 09/M15 A3034 RMK A01 T00911154  RH  016%=      5-min Rain = 0
KLD1 020016Z 04009KT 09/M15 A3034 RMK A01 T00911154  RH  016%=      5-min Rain = 0
KLD1 020017Z 04008KT 09/M15 A3034 RMK A01 T00901154  RH  016%=      5-min Rain = 0
KLD1 020018Z 04007KT 09/M15 A3034 RMK A01 T00901154  RH  016%=      5-min Rain = 0
KLD1 020019Z 03007KT 09/M15 A3034 RMK A01 T00901154  RH  016%=      5-min Rain = 0
KLD1 020020Z 04007KT 09/M15 A3034 RMK A01 T00901154  RH  016%=      5-min Rain = 0
KLD1 020021Z 04008KT 09/M15 A3034 RMK A01 T00891154  RH  016%=      5-min Rain = 0
KLD1 020022Z 03007KT 09/M15 A3034 RMK A01 T00891154  RH  016%=      5-min Rain = 0
KLD1 020023Z 03007KT 09/M15 A3034 RMK A01 T00881154  RH  016%=      5-min Rain = 0
KLD1 020024Z 03007KT 09/M15 A3034 RMK A01 T00881153  RH  016%=      5-min Rain = 0
KLD1 020025Z 03007KT 09/M15 A3034 RMK A01 T00881153  RH  017%=      5-min Rain = 0
KLD1 020026Z 04007KT 09/M15 A3034 RMK A01 T00871153  RH  017%=      5-min Rain = 0
KLD1 020027Z 03008KT 09/M15 A3034 RMK A01 T00871154  RH  017%=      5-min Rain = 0
KLD1 020028Z 04007KT 09/M15 A3034 RMK A01 T00861154  RH  017%=      5-min Rain = 0
KLD1 020029Z 04007KT 09/M15 A3034 RMK A01 T00861153  RH  017%=      5-min Rain = 0
KLD1 020030Z 04008KT 09/M15 A3034 RMK A01 T00851153  RH  017%=      5-min Rain = 0
KLD1 020031Z 05007KT 09/M15 A3034 RMK A01 T00851153  RH  017%=      5-min Rain = 0
KLD1 020032Z 04007KT 09/M15 A3034 RMK A01 T00851153  RH  017%=      5-min Rain = 0
KLD1 020033Z 05007KT 08/M15 A3034 RMK A01 T00841153  RH  017%=      5-min Rain = 0
KLD1 020034Z 05007KT 08/M15 A3034 RMK A01 T00831153  RH  017%=      5-min Rain = 0
KLD1 020035Z 05008KT 08/M15 A3034 RMK A01 T00821153  RH  017%=      5-min Rain = 0
KLD1 020036Z 07010KT 08/M15 A3034 RMK A01 T00811151  RH  018%=      5-min Rain = 0
KLD1 020037Z 12010KT 08/M12 A3034 RMK A01 T00771120  RH  023%=      5-min Rain = 0
KLD1 020038Z 15012G17KT 07/M10 A3034 RMK A01 T00721102  RH  028%=      5-min Rain = 0
KLD1 020039Z 16013G20KT 07/M09 A3034 RMK A01 T00711092  RH  030%=      5-min Rain = 0
KLD1 020040Z 17015KT 07/M08 A3034 RMK A01 T00671076  RH  035%=      5-min Rain = 0
KLD1 020041Z 18012KT 06/M07 A3034 RMK A01 T00641069  RH  038%=      5-min Rain = 0
KLD1 020042Z 18013KT 06/M07 A3034 RMK A01 T00621071  RH  038%=      5-min Rain = 0
KLD1 020043Z 18013KT 06/M07 A3034 RMK A01 T00621072  RH  038%=      5-min Rain = 0
KLD1 020044Z 18013KT 06/M07 A3034 RMK A01 T00611068  RH  039%=      5-min Rain = 0
KLD1 020045Z 19012KT 06/M07 A3034 RMK A01 T00601065  RH  041%=      5-min Rain = 0
KLD1 020046Z 19012KT 06/M06 A3034 RMK A01 T00571060  RH  043%=      5-min Rain = 0
KLD1 020047Z 19011KT 06/M06 A3034 RMK A01 T00551058  RH  044%=      5-min Rain = 0
KLD1 020048Z 19011KT 05/M06 A3034 RMK A01 T00541058  RH  044%=      5-min Rain = 0
KLD1 020049Z 19013KT 05/M06 A3034 RMK A01 T00531058  RH  045%=      5-min Rain = 0
KLD1 020050Z 19011KT 05/M06 A3034 RMK A01 T00531057  RH  045%=      5-min Rain = 0
KLD1 020051Z 19009KT 05/M06 A3035 RMK A01 T00521058  RH  045%=      5-min Rain = 0
KLD1 020052Z 19010KT 05/M06 A3035 RMK A01 T00521058  RH  045%=      5-min Rain = 0
KLD1 020053Z 18009KT 05/M06 A3035 RMK A01 T00511059  RH  045%=      5-min Rain = 0
KLD1 020054Z 19009KT 05/M06 A3035 RMK A01 T00511059  RH  045%=      5-min Rain = 0
KLD1 020055Z 19010KT 05/M06 A3035 RMK A01 T00511059  RH  045%=      5-min Rain = 0
KLD1 020056Z 19009KT 05/M06 A3035 RMK A01 T00501059  RH  045%=      5-min Rain = 0
KLD1 020057Z 19010KT 05/M06 A3035 RMK A01 T00501059  RH  045%=      5-min Rain = 0
KLD1 020058Z 19010KT 05/M06 A3035 RMK A01 T00491059  RH  046%=      5-min Rain = 0
KLD1 020059Z 19008KT 05/M06 A3035 RMK A01 T00491058  RH  046%=      5-min Rain = 0
KLD1 020100Z 18009KT 05/M06 A3035 RMK A01 T00481058  RH  046%=      5-min Rain = 0
KLD1 020101Z 19009KT 05/M06 A3035 RMK A01 T00481057  RH  047%=      5-min Rain = 0
KLD1 020102Z 19009KT 05/M06 A3035 RMK A01 T00471056  RH  047%=      5-min Rain = 0
KLD1 020103Z 18009KT 05/M06 A3035 RMK A01 T00471056  RH  047%=      5-min Rain = 0
KLD1 020104Z 18008KT 05/M06 A3035 RMK A01 T00461056  RH  047%=      5-min Rain = 0
KLD1 020105Z 18009KT 05/M06 A3035 RMK A01 T00461057  RH  047%=      5-min Rain = 0
KLD1 020106Z 18009KT 05/M06 A3035 RMK A01 T00461057  RH  047%=      5-min Rain = 0
KLD1 020107Z 18009KT 05/M06 A3035 RMK A01 T00451057  RH  047%=      5-min Rain = 0
KLD1 020108Z 18011KT 05/M06 A3035 RMK A01 T00451056  RH  048%=      5-min Rain = 0
KLD1 020109Z 18010KT 05/M06 A3035 RMK A01 T00451056  RH  048%=      5-min Rain = 0
KLD1 020110Z 18009KT 04/M06 A3035 RMK A01 T00441056  RH  048%=      5-min Rain = 0
KLD1 020111Z 18009KT 04/M06 A3035 RMK A01 T00441056  RH  048%=      5-min Rain = 0
KLD1 020112Z 19009KT 04/M06 A3035 RMK A01 T00431057  RH  048%=      5-min Rain = 0
KLD1 020113Z 19010KT 04/M06 A3035 RMK A01 T00431056  RH  049%=      5-min Rain = 0
KLD1 020114Z 19010KT 04/M05 A3035 RMK A01 T00431054  RH  049%=      5-min Rain = 0
KLD1 020115Z 19010KT 04/M05 A3035 RMK A01 T00421053  RH  050%=      5-min Rain = 0
KLD1 020116Z 19010KT 04/M05 A3035 RMK A01 T00421053  RH  050%=      5-min Rain = 0
KLD1 020117Z 20011KT 04/M05 A3035 RMK A01 T00411052  RH  051%=      5-min Rain = 0
KLD1 020118Z 19010KT 04/M05 A3035 RMK A01 T00411051  RH  051%=      5-min Rain = 0
KLD1 020119Z 19009KT 04/M05 A3035 RMK A01 T00411051  RH  051%=      5-min Rain = 0
KLD1 020120Z 19010KT 04/M05 A3035 RMK A01 T00401052  RH  051%=      5-min Rain = 0
KLD1 020121Z 19009KT 04/M05 A3035 RMK A01 T00401051  RH  052%=      5-min Rain = 0
KLD1 020122Z 19010KT 04/M05 A3035 RMK A01 T00401050  RH  052%=      5-min Rain = 0
KLD1 020123Z 19008KT 04/M05 A3035 RMK A01 T00391051  RH  052%=      5-min Rain = 0
KLD1 020124Z 19009KT 04/M05 A3035 RMK A01 T00381051  RH  052%=      5-min Rain = 0
KLD1 020125Z 19009KT 04/M05 A3035 RMK A01 T00381051  RH  052%=      5-min Rain = 0
KLD1 020126Z 19009KT 04/M05 A3035 RMK A01 T00381050  RH  053%=      5-min Rain = 0
KLD1 020127Z 19009KT 04/M05 A3035 RMK A01 T00371050  RH  053%=      5-min Rain = 0
KLD1 020128Z 19009KT 04/M05 A3035 RMK A01 T00371050  RH  053%=      5-min Rain = 0
KLD1 020129Z 19010KT 04/M05 A3035 RMK A01 T00371049  RH  053%=      5-min Rain = 0
KLD1 020130Z 19009KT 04/M05 A3035 RMK A01 T00361049  RH  054%=      5-min Rain = 0
KLD1 020131Z 20010KT 04/M05 A3035 RMK A01 T00361048  RH  054%=      5-min Rain = 0
KLD1 020132Z 20009KT 04/M05 A3035 RMK A01 T00361048  RH  054%=      5-min Rain = 0
KLD1 020133Z 20009KT 04/M05 A3035 RMK A01 T00361048  RH  054%=      5-min Rain = 0
KLD1 020134Z 19010KT 04/M05 A3035 RMK A01 T00351048  RH  055%=      5-min Rain = 0
KLD1 020135Z 19009KT 04/M05 A3035 RMK A01 T00351047  RH  055%=      5-min Rain = 0
KLD1 020136Z 19010KT 03/M05 A3035 RMK A01 T00341047  RH  055%=      5-min Rain = 0
KLD1 020137Z 20010KT 03/M05 A3035 RMK A01 T00341046  RH  056%=      5-min Rain = 0
KLD1 020138Z 20010KT 03/M05 A3035 RMK A01 T00341046  RH  056%=      5-min Rain = 0
KLD1 020139Z 20010KT 03/M05 A3035 RMK A01 T00341045  RH  056%=      5-min Rain = 0
KLD1 020140Z 20009KT 03/M05 A3035 RMK A01 T00331045  RH  056%=      5-min Rain = 0
KLD1 020141Z 20009KT 03/M05 A3035 RMK A01 T00331045  RH  056%=      5-min Rain = 0
KLD1 020142Z 20009KT 03/M05 A3035 RMK A01 T00331045  RH  057%=      5-min Rain = 0
KLD1 020143Z 20009KT 03/M05 A3035 RMK A01 T00321045  RH  057%=      5-min Rain = 0
KLD1 020144Z 20010KT 03/M05 A3035 RMK A01 T00321045  RH  057%=      5-min Rain = 0
KLD1 020145Z 20009KT 03/M05 A3035 RMK A01 T00321045  RH  057%=      5-min Rain = 0
KLD1 020146Z 20009KT 03/M05 A3035 RMK A01 T00321045  RH  057%=      5-min Rain = 0
KLD1 020147Z 20009KT 03/M05 A3035 RMK A01 T00311045  RH  057%=      5-min Rain = 0
KLD1 020148Z 20009KT 03/M05 A3035 RMK A01 T00311045  RH  057%=      5-min Rain = 0
KLD1 020149Z 20009KT 03/M05 A3035 RMK A01 T00311045  RH  057%=      5-min Rain = 0
KLD1 020150Z 20009KT 03/M05 A3035 RMK A01 T00311045  RH  057%=      5-min Rain = 0
KLD1 020151Z 20009KT 03/M05 A3035 RMK A01 T00301045  RH  058%=      5-min Rain = 0
KLD1 020152Z 20009KT 03/M05 A3035 RMK A01 T00301045  RH  058%=      5-min Rain = 0
KLD1 020153Z 20009KT 03/M05 A3035 RMK A01 T00301045  RH  058%=      5-min Rain = 0
KLD1 020154Z 20009KT 03/M05 A3035 RMK A01 T00301045  RH  058%=      5-min Rain = 0
KLD1 020155Z 20009KT 03/M05 A3035 RMK A01 T00301045  RH  058%=      5-min Rain = 0
KLD1 020156Z 20009KT 03/M05 A3035 RMK A01 T00291045  RH  058%=      5-min Rain = 0
KLD1 020157Z 20009KT 03/M05 A3035 RMK A01 T00291045  RH  058%=      5-min Rain = 0
KLD1 020158Z 20008KT 03/M05 A3035 RMK A01 T00291045  RH  058%=      5-min Rain = 0
KLD1 020159Z 20008KT 03/M05 A3035 RMK A01 T00281046  RH  058%=      5-min Rain = 0
KLD1 020200Z 20008KT 03/M05 A3035 RMK A01 T00281046  RH  058%=      5-min Rain = 0
KLD1 020201Z 20008KT 03/M05 A3035 RMK A01 T00281046  RH  059%=      5-min Rain = 0
KLD1 020202Z 20008KT 03/M05 A3035 RMK A01 T00281045  RH  059%=      5-min Rain = 0
KLD1 020203Z 20008KT 03/M05 A3035 RMK A01 T00281045  RH  059%=      5-min Rain = 0
KLD1 020204Z 20008KT 03/M05 A3035 RMK A01 T00271046  RH  059%=      5-min Rain = 0
KLD1 020205Z 20009KT 03/M05 A3035 RMK A01 T00271046  RH  059%=      5-min Rain = 0
KLD1 020206Z 20009KT 03/M05 A3035 RMK A01 T00271045  RH  059%=      5-min Rain = 0
KLD1 020207Z 20008KT 03/M05 A3035 RMK A01 T00271045  RH  059%=      5-min Rain = 0
KLD1 020208Z 20008KT 03/M05 A3035 RMK A01 T00271045  RH  059%=      5-min Rain = 0
KLD1 020209Z 20009KT 03/M05 A3035 RMK A01 T00271045  RH  059%=      5-min Rain = 0
KLD1 020210Z 20008KT 03/M05 A3035 RMK A01 T00261045  RH  059%=      5-min Rain = 0
KLD1 020211Z 20008KT 03/M05 A3035 RMK A01 T00261045  RH  059%=      5-min Rain = 0
KLD1 020212Z 21009KT 03/M05 A3035 RMK A01 T00261045  RH  059%=      5-min Rain = 0
KLD1 020213Z 21009KT 03/M05 A3035 RMK A01 T00261045  RH  060%=      5-min Rain = 0
KLD1 020214Z 21008KT 03/M05 A3035 RMK A01 T00251045  RH  060%=      5-min Rain = 0
KLD1 020215Z 20009KT 03/M05 A3035 RMK A01 T00251045  RH  060%=      5-min Rain = 0
KLD1 020216Z 20008KT 03/M05 A3035 RMK A01 T00251045  RH  060%=      5-min Rain = 0
KLD1 020217Z 20008KT 03/M05 A3035 RMK A01 T00251045  RH  060%=      5-min Rain = 0
KLD1 020218Z 20008KT 03/M05 A3035 RMK A01 T00251045  RH  060%=      5-min Rain = 0
KLD1 020219Z 20008KT 02/M04 A3035 RMK A01 T00241044  RH  060%=      5-min Rain = 0
KLD1 020220Z 20008KT 02/M04 A3035 RMK A01 T00241044  RH  061%=      5-min Rain = 0
KLD1 020221Z 20008KT 02/M04 A3035 RMK A01 T00241044  RH  061%=      5-min Rain = 0
KLD1 020222Z 20008KT 02/M04 A3035 RMK A01 T00241044  RH  061%=      5-min Rain = 0
KLD1 020223Z 20008KT 02/M04 A3035 RMK A01 T00241044  RH  061%=      5-min Rain = 0
KLD1 020224Z 20008KT 02/M05 A3035 RMK A01 T00231045  RH  061%=      5-min Rain = 0
KLD1 020225Z 20009KT 02/M05 A3035 RMK A01 T00221045  RH  061%=      5-min Rain = 0
KLD1 020226Z 20009KT 02/M05 A3035 RMK A01 T00221045  RH  061%=      5-min Rain = 0
KLD1 020227Z 20008KT 02/M05 A3035 RMK A01 T00221045  RH  061%=      5-min Rain = 0
KLD1 020228Z 20007KT 02/M05 A3035 RMK A01 T00221045  RH  061%=      5-min Rain = 0
KLD1 020229Z 20007KT 02/M05 A3035 RMK A01 T00211045  RH  061%=      5-min Rain = 0
KLD1 020230Z 20007KT 02/M05 A3035 RMK A01 T00211046  RH  062%=      5-min Rain = 0
KLD1 020231Z 20007KT 02/M05 A3035 RMK A01 T00201046  RH  062%=      5-min Rain = 0
KLD1 020232Z 19006KT 02/M05 A3035 RMK A01 T00201046  RH  062%=      5-min Rain = 0
KLD1 020233Z 20007KT 02/M05 A3035 RMK A01 T00191046  RH  062%=      5-min Rain = 0
KLD1 020234Z 20007KT 02/M05 A3035 RMK A01 T00191046  RH  062%=      5-min Rain = 0
KLD1 020235Z 20007KT 02/M05 A3035 RMK A01 T00191045  RH  062%=      5-min Rain = 0
KLD1 020236Z 19007KT 02/M05 A3035 RMK A01 T00191045  RH  062%=      5-min Rain = 0
KLD1 020237Z 20007KT 02/M05 A3035 RMK A01 T00191045  RH  063%=      5-min Rain = 0
KLD1 020238Z 19006KT 02/M05 A3035 RMK A01 T00191045  RH  063%=      5-min Rain = 0
KLD1 020239Z 19007KT 02/M05 A3035 RMK A01 T00181045  RH  063%=      5-min Rain = 0
KLD1 020240Z 19007KT 02/M05 A3035 RMK A01 T00181045  RH  063%=      5-min Rain = 0
KLD1 020241Z 20007KT 02/M05 A3035 RMK A01 T00181045  RH  063%=      5-min Rain = 0
KLD1 020242Z 19007KT 02/M05 A3035 RMK A01 T00171045  RH  063%=      5-min Rain = 0
KLD1 020243Z 19007KT 02/M05 A3035 RMK A01 T00171045  RH  063%=      5-min Rain = 0
KLD1 020244Z 19007KT 02/M05 A3035 RMK A01 T00171045  RH  063%=      5-min Rain = 0
KLD1 020245Z 19006KT 02/M05 A3035 RMK A01 T00171045  RH  063%=      5-min Rain = 0
KLD1 020246Z 19006KT 02/M05 A3035 RMK A01 T00161046  RH  063%=      5-min Rain = 0
KLD1 020247Z 20007KT 02/M05 A3035 RMK A01 T00161046  RH  064%=      5-min Rain = 0
KLD1 020248Z 20006KT 02/M05 A3035 RMK A01 T00151046  RH  064%=      5-min Rain = 0
KLD1 020249Z 20006KT 02/M05 A3035 RMK A01 T00151046  RH  064%=      5-min Rain = 0
KLD1 020250Z 20006KT 02/M05 A3035 RMK A01 T00151046  RH  064%=      5-min Rain = 0
KLD1 020251Z 20006KT 01/M05 A3035 RMK A01 T00141046  RH  064%=      5-min Rain = 0
KLD1 020252Z 20006KT 01/M05 A3035 RMK A01 T00131047  RH  064%=      5-min Rain = 0
KLD1 020253Z 20006KT 01/M05 A3035 RMK A01 T00131046  RH  065%=      5-min Rain = 0
KLD1 020254Z 20006KT 01/M05 A3035 RMK A01 T00131046  RH  065%=      5-min Rain = 0
KLD1 020255Z 19006KT 01/M05 A3035 RMK A01 T00121046  RH  065%=      5-min Rain = 0
KLD1 020256Z 20006KT 01/M05 A3035 RMK A01 T00121046  RH  065%=      5-min Rain = 0
KLD1 020257Z 20006KT 01/M05 A3035 RMK A01 T00121046  RH  065%=      5-min Rain = 0
KLD1 020258Z 20007KT 01/M05 A3035 RMK A01 T00121046  RH  065%=      5-min Rain = 0
KLD1 020259Z 20007KT 01/M05 A3035 RMK A01 T00111047  RH  065%=      5-min Rain = 0
KLD1 020300Z 20007KT 01/M05 A3035 RMK A01 T00111046  RH  066%=      5-min Rain = 0
KLD1 020301Z 20007KT 01/M05 A3035 RMK A01 T00111046  RH  066%=      5-min Rain = 0
KLD1 020302Z 20006KT 01/M05 A3035 RMK A01 T00111046  RH  066%=      5-min Rain = 0
KLD1 020303Z 20006KT 01/M05 A3035 RMK A01 T00111046  RH  066%=      5-min Rain = 0
KLD1 020304Z 20006KT 01/M05 A3035 RMK A01 T00111046  RH  066%=      5-min Rain = 0
KLD1 020305Z 19006KT 01/M05 A3035 RMK A01 T00111045  RH  066%=      5-min Rain = 0
KLD1 020306Z 19006KT 01/M05 A3035 RMK A01 T00111045  RH  066%=      5-min Rain = 0
KLD1 020307Z 19005KT 01/M05 A3035 RMK A01 T00111046  RH  066%=      5-min Rain = 0
KLD1 020308Z 19005KT 01/M05 A3035 RMK A01 T00101046  RH  066%=      5-min Rain = 0
KLD1 020309Z 19005KT 01/M05 A3035 RMK A01 T00101046  RH  066%=      5-min Rain = 0
KLD1 020310Z 19005KT 01/M05 A3035 RMK A01 T00101046  RH  066%=      5-min Rain = 0
KLD1 020311Z 19005KT 01/M05 A3035 RMK A01 T00091046  RH  066%=      5-min Rain = 0
KLD1 020312Z 19005KT 01/M05 A3035 RMK A01 T00091046  RH  067%=      5-min Rain = 0
KLD1 020313Z 19005KT 01/M05 A3035 RMK A01 T00081046  RH  067%=      5-min Rain = 0
KLD1 020314Z 19005KT 01/M05 A3035 RMK A01 T00081046  RH  067%=      5-min Rain = 0
KLD1 020315Z 20005KT 01/M05 A3035 RMK A01 T00081046  RH  067%=      5-min Rain = 0
KLD1 020316Z 20005KT 01/M05 A3035 RMK A01 T00081047  RH  067%=      5-min Rain = 0
KLD1 020317Z 20006KT 01/M05 A3035 RMK A01 T00081047  RH  067%=      5-min Rain = 0
KLD1 020318Z 20006KT 01/M05 A3035 RMK A01 T00071046  RH  067%=      5-min Rain = 0
KLD1 020319Z 20005KT 01/M05 A3035 RMK A01 T00071046  RH  067%=      5-min Rain = 0
KLD1 020320Z 20005KT 01/M05 A3035 RMK A01 T00071046  RH  068%=      5-min Rain = 0
KLD1 020321Z 20006KT 01/M05 A3035 RMK A01 T00071046  RH  067%=      5-min Rain = 0
KLD1 020322Z 20006KT 01/M05 A3035 RMK A01 T00071046  RH  068%=      5-min Rain = 0
KLD1 020323Z 20006KT 01/M05 A3035 RMK A01 T00071047  RH  067%=      5-min Rain = 0
KLD1 020324Z 20006KT 01/M05 A3035 RMK A01 T00061047  RH  068%=      5-min Rain = 0
KLD1 020325Z 21006KT 01/M05 A3035 RMK A01 T00061047  RH  068%=      5-min Rain = 0
KLD1 020326Z 21006KT 01/M05 A3035 RMK A01 T00051047  RH  068%=      5-min Rain = 0
KLD1 020327Z 21006KT 01/M05 A3035 RMK A01 T00051047  RH  068%=      5-min Rain = 0
KLD1 020328Z 21006KT 01/M05 A3035 RMK A01 T00051048  RH  068%=      5-min Rain = 0
KLD1 020329Z 21006KT 01/M05 A3035 RMK A01 T00051047  RH  068%=      5-min Rain = 0
KLD1 020330Z 21007KT 01/M05 A3035 RMK A01 T00051047  RH  068%=      5-min Rain = 0
KLD1 020331Z 20006KT 01/M05 A3035 RMK A01 T00051046  RH  069%=      5-min Rain = 0
KLD1 020332Z 20005KT 01/M05 A3036 RMK A01 T00051047  RH  068%=      5-min Rain = 0
KLD1 020333Z 20005KT 01/M05 A3036 RMK A01 T00051047  RH  068%=      5-min Rain = 0
KLD1 020334Z 20005KT 01/M05 A3036 RMK A01 T00051046  RH  069%=      5-min Rain = 0
KLD1 020335Z 20005KT 01/M05 A3036 RMK A01 T00051046  RH  069%=      5-min Rain = 0
KLD1 020336Z 20005KT 01/M05 A3036 RMK A01 T00051046  RH  069%=      5-min Rain = 0
KLD1 020337Z 20005KT 01/M05 A3036 RMK A01 T00051046  RH  069%=      5-min Rain = 0
KLD1 020338Z 20005KT 01/M05 A3036 RMK A01 T00051046  RH  069%=      5-min Rain = 0
KLD1 020339Z 21005KT 01/M05 A3036 RMK A01 T00051046  RH  069%=      5-min Rain = 0
KLD1 020340Z 21006KT 01/M05 A3035 RMK A01 T00051046  RH  069%=      5-min Rain = 0
KLD1 020341Z 21006KT 01/M05 A3035 RMK A01 T00051045  RH  069%=      5-min Rain = 0
KLD1 020342Z 21006KT 01/M05 A3035 RMK A01 T00061045  RH  069%=      5-min Rain = 0
KLD1 020343Z 21006KT 01/M05 A3036 RMK A01 T00061045  RH  069%=      5-min Rain = 0
KLD1 020344Z 21006KT 01/M05 A3036 RMK A01 T00061045  RH  068%=      5-min Rain = 0
KLD1 020345Z 21006KT 01/M05 A3036 RMK A01 T00061046  RH  068%=      5-min Rain = 0
KLD1 020346Z 21006KT 01/M05 A3036 RMK A01 T00051047  RH  068%=      5-min Rain = 0
KLD1 020347Z 22005KT 01/M05 A3036 RMK A01 T00051047  RH  068%=      5-min Rain = 0
KLD1 020348Z 22005KT 00/M05 A3036 RMK A01 T00041048  RH  068%=      5-min Rain = 0
KLD1 020349Z 22005KT 00/M05 A3036 RMK A01 T00031048  RH  068%=      5-min Rain = 0
KLD1 020350Z 22005KT 00/M05 A3036 RMK A01 T00031049  RH  068%=      5-min Rain = 0
KLD1 020351Z 22005KT 00/M05 A3036 RMK A01 T00031049  RH  068%=      5-min Rain = 0
KLD1 020352Z 22006KT 00/M05 A3036 RMK A01 T00021049  RH  068%=      5-min Rain = 0
KLD1 020353Z 22006KT 00/M05 A3036 RMK A01 T00021049  RH  068%=      5-min Rain = 0
KLD1 020354Z 22006KT 00/M05 A3036 RMK A01 T00021050  RH  068%=      5-min Rain = 0
KLD1 020355Z 22006KT 00/M05 A3036 RMK A01 T00021050  RH  068%=      5-min Rain = 0
KLD1 020356Z 22006KT 00/M05 A3036 RMK A01 T00021051  RH  068%=      5-min Rain = 0
KLD1 020357Z 22006KT 00/M05 A3036 RMK A01 T00011051  RH  068%=      5-min Rain = 0
KLD1 020358Z 22006KT 00/M05 A3036 RMK A01 T00011051  RH  068%=      5-min Rain = 0
KLD1 020359Z 22006KT 00/M05 A3036 RMK A01 T00011051  RH  068%=      5-min Rain = 0
KLD1 020400Z 22006KT 00/M05 A3036 RMK A01 T00011051  RH  068%=      5-min Rain = 0
KLD1 020401Z 22006KT 00/M05 A3036 RMK A01 T00011051  RH  068%=      5-min Rain = 0
KLD1 020402Z 22006KT 00/M05 A3036 RMK A01 T00011051  RH  068%=      5-min Rain = 0
KLD1 020403Z 22006KT 00/M05 A3036 RMK A01 T00011051  RH  068%=      5-min Rain = 0
KLD1 020404Z 22007KT 00/M05 A3036 RMK A01 T00011051  RH  068%=      5-min Rain = 0
KLD1 020405Z 22007KT 00/M05 A3036 RMK A01 T00011051  RH  068%=      5-min Rain = 0
KLD1 020406Z 22007KT 00/05 A3036 RMK A01 T00000-51  RH  068%=      5-min Rain = 0
KLD1 020407Z 22008KT 00/M05 A3036 RMK A01 T00011051  RH  068%=      5-min Rain = 0
KLD1 020408Z 22009KT 00/05 A3036 RMK A01 T00000-51  RH  068%=      5-min Rain = 0
KLD1 020409Z 22009KT 00/M05 A3036 RMK A01 T00011051  RH  068%=      5-min Rain = 0
KLD1 020410Z 23009KT 00/05 A3036 RMK A01 T00000-51  RH  068%=      5-min Rain = 0
KLD1 020411Z 23009KT 00/05 A3036 RMK A01 T00000-51  RH  068%=      5-min Rain = 0
KLD1 020412Z 23009KT 00/05 A3036 RMK A01 T00-00-51  RH  068%=      5-min Rain = 0
KLD1 020413Z 23009KT M00/M05 A3036 RMK A01 T10011052  RH  068%=      5-min Rain = 0
KLD1 020414Z 23009KT M00/M05 A3036 RMK A01 T10021053  RH  068%=      5-min Rain = 0
KLD1 020415Z 23009KT M00/M05 A3036 RMK A01 T10021052  RH  069%=      5-min Rain = 0
KLD1 020416Z 23009KT M00/M05 A3036 RMK A01 T10021050  RH  070%=      5-min Rain = 0
KLD1 020417Z 23009KT M00/M05 A3036 RMK A01 T10021050  RH  070%=      5-min Rain = 0
KLD1 020418Z 23009KT M00/M05 A3036 RMK A01 T10021050  RH  070%=      5-min Rain = 0
KLD1 020419Z 23008KT M00/M05 A3036 RMK A01 T10021050  RH  070%=      5-min Rain = 0
KLD1 020420Z 23008KT M00/M05 A3036 RMK A01 T10021050  RH  070%=      5-min Rain = 0
KLD1 020421Z 22008KT M00/M05 A3036 RMK A01 T10021050  RH  070%=      5-min Rain = 0
KLD1 020422Z 22008KT M00/M05 A3036 RMK A01 T10021050  RH  070%=      5-min Rain = 0
KLD1 020423Z 22008KT M00/M05 A3036 RMK A01 T10021051  RH  070%=      5-min Rain = 0
KLD1 020424Z 22008KT M00/M05 A3036 RMK A01 T10031051  RH  070%=      5-min Rain = 0
KLD1 020425Z 22008KT M00/M05 A3036 RMK A01 T10031051  RH  070%=      5-min Rain = 0
KLD1 020426Z 23009KT M00/M05 A3036 RMK A01 T10041052  RH  070%=      5-min Rain = 0
KLD1 020427Z 23009KT M00/M05 A3036 RMK A01 T10041051  RH  070%=      5-min Rain = 0
KLD1 020428Z 23009KT M00/M05 A3036 RMK A01 T10041052  RH  070%=      5-min Rain = 0
KLD1 020429Z 23009KT M01/M05 A3036 RMK A01 T10051051  RH  071%=      5-min Rain = 0
KLD1 020430Z 23009KT M00/M05 A3036 RMK A01 T10041051  RH  070%=      5-min Rain = 0
KLD1 020431Z 23009KT M00/M05 A3036 RMK A01 T10041051  RH  070%=      5-min Rain = 0
KLD1 020432Z 23009KT M00/M05 A3036 RMK A01 T10031051  RH  070%=      5-min Rain = 0
KLD1 020433Z 23009KT M00/M05 A3036 RMK A01 T10031051  RH  070%=      5-min Rain = 0
KLD1 020434Z 23009KT M00/M05 A3036 RMK A01 T10031051  RH  070%=      5-min Rain = 0
KLD1 020435Z 24009KT M00/M05 A3036 RMK A01 T10031051  RH  070%=      5-min Rain = 0
KLD1 020436Z 23009KT M00/M05 A3036 RMK A01 T10031051  RH  070%=      5-min Rain = 0
KLD1 020437Z 23009KT M00/M05 A3036 RMK A01 T10031051  RH  070%=      5-min Rain = 0
KLD1 020438Z 24009KT M00/M05 A3036 RMK A01 T10021051  RH  070%=      5-min Rain = 0
KLD1 020439Z 23009KT M00/M05 A3036 RMK A01 T10021051  RH  070%=      5-min Rain = 0
KLD1 020440Z 23009KT M00/M05 A3036 RMK A01 T10021050  RH  070%=      5-min Rain = 0
KLD1 020441Z 23009KT M00/M05 A3036 RMK A01 T10011050  RH  070%=      5-min Rain = 0
KLD1 020442Z 23009KT M00/M05 A3036 RMK A01 T10011050  RH  069%=      5-min Rain = 0
KLD1 020443Z 23009KT M00/M05 A3036 RMK A01 T10011050  RH  069%=      5-min Rain = 0
KLD1 020444Z 23010KT 00/05 A3036 RMK A01 T00-00-50  RH  069%=      5-min Rain = 0
KLD1 020445Z 23010KT 00/05 A3036 RMK A01 T00000-50  RH  069%=      5-min Rain = 0
KLD1 020446Z 23009KT 00/M05 A3036 RMK A01 T00011050  RH  069%=      5-min Rain = 0
KLD1 020447Z 23009KT 00/M05 A3036 RMK A01 T00011050  RH  069%=      5-min Rain = 0
KLD1 020448Z 23009KT 00/M05 A3036 RMK A01 T00011050  RH  069%=      5-min Rain = 0
KLD1 020449Z 23009KT 00/M05 A3036 RMK A01 T00011050  RH  069%=      5-min Rain = 0
KLD1 020450Z 23008KT 00/M05 A3036 RMK A01 T00011050  RH  069%=      5-min Rain = 0
KLD1 020451Z 23008KT 00/M05 A3036 RMK A01 T00011050  RH  068%=      5-min Rain = 0
KLD1 020452Z 22008KT 00/M05 A3035 RMK A01 T00011050  RH  068%=      5-min Rain = 0
KLD1 020453Z 22007KT 00/M05 A3035 RMK A01 T00011050  RH  068%=      5-min Rain = 0
KLD1 020454Z 22008KT 00/M05 A3035 RMK A01 T00011051  RH  068%=      5-min Rain = 0
KLD1 020455Z 22008KT 00/05 A3035 RMK A01 T00000-51  RH  068%=      5-min Rain = 0
KLD1 020456Z 22008KT 00/05 A3035 RMK A01 T00-00-52  RH  068%=      5-min Rain = 0
KLD1 020457Z 22007KT M00/M05 A3035 RMK A01 T10011053  RH  068%=      5-min Rain = 0
KLD1 020458Z 22007KT M00/M05 A3035 RMK A01 T10011053  RH  068%=      5-min Rain = 0
KLD1 020459Z 22007KT M00/M05 A3035 RMK A01 T10021053  RH  068%=      5-min Rain = 0
KLD1 020500Z 22007KT M00/M05 A3035 RMK A01 T10021053  RH  069%=      5-min Rain = 0
KLD1 020501Z 22007KT M00/M05 A3035 RMK A01 T10021052  RH  069%=      5-min Rain = 0
KLD1 020502Z 22007KT M00/M05 A3035 RMK A01 T10021053  RH  069%=      5-min Rain = 0
KLD1 020503Z 22007KT M00/M05 A3035 RMK A01 T10021053  RH  069%=      5-min Rain = 0
KLD1 020504Z 22007KT M00/M05 A3035 RMK A01 T10031053  RH  069%=      5-min Rain = 0
KLD1 020505Z 22007KT M00/M05 A3035 RMK A01 T10031053  RH  069%=      5-min Rain = 0
KLD1 020506Z 22008KT M00/M05 A3035 RMK A01 T10041054  RH  069%=      5-min Rain = 0
KLD1 020507Z 22007KT M00/M05 A3035 RMK A01 T10041053  RH  069%=      5-min Rain = 0
KLD1 020508Z 21007KT M00/M05 A3035 RMK A01 T10041054  RH  069%=      5-min Rain = 0
KLD1 020509Z 21006KT M00/M05 A3035 RMK A01 T10041054  RH  069%=      5-min Rain = 0
KLD1 020510Z 21006KT M01/M05 A3035 RMK A01 T10051054  RH  069%=      5-min Rain = 0
KLD1 020511Z 21006KT M01/M05 A3035 RMK A01 T10051054  RH  069%=      5-min Rain = 0
KLD1 020512Z 21006KT M01/M05 A3035 RMK A01 T10051054  RH  070%=      5-min Rain = 0
KLD1 020513Z 21006KT M01/M05 A3034 RMK A01 T10051054  RH  070%=      5-min Rain = 0
KLD1 020514Z 21006KT M01/M05 A3034 RMK A01 T10051054  RH  070%=      5-min Rain = 0
KLD1 020515Z 21006KT M01/M05 A3034 RMK A01 T10051054  RH  070%=      5-min Rain = 0
KLD1 020516Z 21006KT M01/M05 A3034 RMK A01 T10051054  RH  070%=      5-min Rain = 0
KLD1 020517Z 21006KT M01/M05 A3034 RMK A01 T10051054  RH  070%=      5-min Rain = 0
KLD1 020518Z 21005KT M01/M05 A3034 RMK A01 T10061054  RH  070%=      5-min Rain = 0
KLD1 020519Z 21005KT M01/M05 A3034 RMK A01 T10061054  RH  070%=      5-min Rain = 0
KLD1 020520Z 21005KT M01/M05 A3034 RMK A01 T10061054  RH  070%=      5-min Rain = 0
KLD1 020521Z 21005KT M01/M06 A3034 RMK A01 T10071055  RH  070%=      5-min Rain = 0
KLD1 020522Z 21006KT M01/M06 A3034 RMK A01 T10071055  RH  070%=      5-min Rain = 0
KLD1 020523Z 21006KT M01/M06 A3034 RMK A01 T10081055  RH  070%=      5-min Rain = 0
KLD1 020524Z 21006KT M01/M06 A3034 RMK A01 T10081055  RH  071%=      5-min Rain = 0
KLD1 020525Z 21006KT M01/M06 A3034 RMK A01 T10091055  RH  071%=      5-min Rain = 0
KLD1 020526Z 21006KT M01/M06 A3034 RMK A01 T10091055  RH  071%=      5-min Rain = 0
KLD1 020527Z 21006KT M01/M06 A3034 RMK A01 T10101056  RH  071%=      5-min Rain = 0
KLD1 020528Z 21006KT M01/M06 A3034 RMK A01 T10101056  RH  071%=      5-min Rain = 0
KLD1 020529Z 22006KT M01/M06 A3034 RMK A01 T10111056  RH  071%=      5-min Rain = 0
KLD1 020530Z 21006KT M01/M06 A3034 RMK A01 T10111056  RH  071%=      5-min Rain = 0
KLD1 020531Z 21006KT M01/M06 A3034 RMK A01 T10111057  RH  071%=      5-min Rain = 0
KLD1 020532Z 21005KT M01/M06 A3034 RMK A01 T10121056  RH  072%=      5-min Rain = 0
KLD1 020533Z 21005KT M01/M06 A3034 RMK A01 T10121056  RH  072%=      5-min Rain = 0
KLD1 020534Z 21005KT M01/M06 A3034 RMK A01 T10121056  RH  072%=      5-min Rain = 0
KLD1 020535Z 21005KT M01/M06 A3034 RMK A01 T10121056  RH  072%=      5-min Rain = 0
KLD1 020536Z 21005KT M01/M06 A3034 RMK A01 T10121057  RH  072%=      5-min Rain = 0
KLD1 020537Z 21005KT M01/M06 A3034 RMK A01 T10121056  RH  072%=      5-min Rain = 0
KLD1 020538Z 21005KT M01/M06 A3034 RMK A01 T10131057  RH  072%=      5-min Rain = 0
KLD1 020539Z 21005KT M01/M06 A3034 RMK A01 T10131057  RH  072%=      5-min Rain = 0
KLD1 020540Z 21005KT M01/M06 A3034 RMK A01 T10131057  RH  072%=      5-min Rain = 0
KLD1 020541Z 21005KT M01/M06 A3034 RMK A01 T10141057  RH  072%=      5-min Rain = 0
KLD1 020542Z 21005KT M01/M06 A3034 RMK A01 T10141057  RH  073%=      5-min Rain = 0
KLD1 020543Z 22006KT M01/M06 A3034 RMK A01 T10141056  RH  073%=      5-min Rain = 0
KLD1 020544Z 22005KT M01/M06 A3034 RMK A01 T10141056  RH  073%=      5-min Rain = 0
KLD1 020545Z 22006KT M01/M06 A3034 RMK A01 T10141056  RH  073%=      5-min Rain = 0
KLD1 020546Z 22005KT M01/M06 A3034 RMK A01 T10131056  RH  073%=      5-min Rain = 0
KLD1 020547Z 22006KT M01/M06 A3034 RMK A01 T10131056  RH  073%=      5-min Rain = 0
KLD1 020548Z 22006KT M01/M06 A3034 RMK A01 T10131055  RH  073%=      5-min Rain = 0
KLD1 020549Z 22005KT M01/M06 A3034 RMK A01 T10121055  RH  073%=      5-min Rain = 0
KLD1 020550Z 22005KT M01/M06 A3034 RMK A01 T10121055  RH  073%=      5-min Rain = 0
KLD1 020551Z 22005KT M01/M05 A3034 RMK A01 T10121054  RH  073%=      5-min Rain = 0
KLD1 020552Z 22005KT M01/M06 A3034 RMK A01 T10121055  RH  073%=      5-min Rain = 0
KLD1 020553Z 22005KT M01/M06 A3034 RMK A01 T10121055  RH  073%=      5-min Rain = 0
KLD1 020554Z 22005KT M01/M06 A3034 RMK A01 T10121055  RH  073%=      5-min Rain = 0
KLD1 020555Z 22005KT M01/M06 A3034 RMK A01 T10121055  RH  073%=      5-min Rain = 0
KLD1 020556Z 23006KT M01/M06 A3034 RMK A01 T10121055  RH  073%=      5-min Rain = 0
KLD1 020557Z 23006KT M01/M06 A3034 RMK A01 T10131055  RH  073%=      5-min Rain = 0
KLD1 020558Z 23006KT M01/M06 A3034 RMK A01 T10131055  RH  073%=      5-min Rain = 0
KLD1 020559Z 23007KT M01/M06 A3034 RMK A01 T10131055  RH  073%=      5-min Rain = 0

Page generated in 0.1123 seconds.